<?xml version="1.0" encoding="UTF-8" standalone="no" ?>
<gpx xmlns="http://www.topografix.com/GPX/1/1" xmlns:xsi="http://www.w3.org/2001/XMLSchema-instance" xsi:schemaLocation="http://www.topografix.com/GPX/1/1 http://www.topografix.com/GPX/1/1/gpx.xsd" version="1.1" creator="VisuGPX - https://www.visugpx.com">
  <metadata>
    <name> Boucle de 17 Km au départ de Saverne</name>
    <desc><![CDATA[ Boucle de 17 Km au départ de Saverne]]></desc>
  </metadata>
  <trk>
    <name><![CDATA[ADi2010/06/30_16:44]]></name>
    <trkseg>
      <trkpt lat="48.73347" lon="7.36139">
        <ele>221.506958</ele>
        <time>2010-06-30T14:54:38Z</time>
      </trkpt>
      <trkpt lat="48.73359" lon="7.36124">
        <ele>220.553833</ele>
        <time>2010-06-30T14:54:42Z</time>
      </trkpt>
      <trkpt lat="48.73374" lon="7.36125">
        <ele>220.366333</ele>
        <time>2010-06-30T14:54:45Z</time>
      </trkpt>
      <trkpt lat="48.7339" lon="7.36129">
        <ele>219.713989</ele>
        <time>2010-06-30T14:54:48Z</time>
      </trkpt>
      <trkpt lat="48.73406" lon="7.36129">
        <ele>219.924927</ele>
        <time>2010-06-30T14:54:51Z</time>
      </trkpt>
      <trkpt lat="48.73415" lon="7.36112">
        <ele>219.858521</ele>
        <time>2010-06-30T14:54:58Z</time>
      </trkpt>
      <trkpt lat="48.73406" lon="7.36096">
        <ele>220.577271</ele>
        <time>2010-06-30T14:55:01Z</time>
      </trkpt>
      <trkpt lat="48.73396" lon="7.36079">
        <ele>221.741333</ele>
        <time>2010-06-30T14:55:04Z</time>
      </trkpt>
      <trkpt lat="48.73387" lon="7.36061">
        <ele>222.405396</ele>
        <time>2010-06-30T14:55:07Z</time>
      </trkpt>
      <trkpt lat="48.73378" lon="7.36043">
        <ele>222.913208</ele>
        <time>2010-06-30T14:55:10Z</time>
      </trkpt>
      <trkpt lat="48.7337" lon="7.36025">
        <ele>223.756958</ele>
        <time>2010-06-30T14:55:13Z</time>
      </trkpt>
      <trkpt lat="48.73363" lon="7.36007">
        <ele>223.186646</ele>
        <time>2010-06-30T14:55:16Z</time>
      </trkpt>
      <trkpt lat="48.73356" lon="7.35989">
        <ele>223.542114</ele>
        <time>2010-06-30T14:55:19Z</time>
      </trkpt>
      <trkpt lat="48.73348" lon="7.3597">
        <ele>225.186646</ele>
        <time>2010-06-30T14:55:22Z</time>
      </trkpt>
      <trkpt lat="48.73341" lon="7.35952">
        <ele>226.256958</ele>
        <time>2010-06-30T14:55:25Z</time>
      </trkpt>
      <trkpt lat="48.73332" lon="7.35928">
        <ele>226.799927</ele>
        <time>2010-06-30T14:55:29Z</time>
      </trkpt>
      <trkpt lat="48.73323" lon="7.35905">
        <ele>227.327271</ele>
        <time>2010-06-30T14:55:33Z</time>
      </trkpt>
      <trkpt lat="48.73315" lon="7.35883">
        <ele>227.506958</ele>
        <time>2010-06-30T14:55:37Z</time>
      </trkpt>
      <trkpt lat="48.73307" lon="7.3586">
        <ele>228.487427</ele>
        <time>2010-06-30T14:55:41Z</time>
      </trkpt>
      <trkpt lat="48.733" lon="7.3584">
        <ele>228.409302</ele>
        <time>2010-06-30T14:55:45Z</time>
      </trkpt>
      <trkpt lat="48.73291" lon="7.35818">
        <ele>228.506958</ele>
        <time>2010-06-30T14:55:49Z</time>
      </trkpt>
      <trkpt lat="48.73282" lon="7.35797">
        <ele>230.010864</ele>
        <time>2010-06-30T14:55:53Z</time>
      </trkpt>
      <trkpt lat="48.73274" lon="7.35776">
        <ele>230.233521</ele>
        <time>2010-06-30T14:55:57Z</time>
      </trkpt>
      <trkpt lat="48.73267" lon="7.35755">
        <ele>231.807739</ele>
        <time>2010-06-30T14:56:01Z</time>
      </trkpt>
      <trkpt lat="48.7326" lon="7.35736">
        <ele>233.764771</ele>
        <time>2010-06-30T14:56:05Z</time>
      </trkpt>
      <trkpt lat="48.73253" lon="7.35715">
        <ele>233.237427</ele>
        <time>2010-06-30T14:56:09Z</time>
      </trkpt>
      <trkpt lat="48.73246" lon="7.35694">
        <ele>233.838989</ele>
        <time>2010-06-30T14:56:13Z</time>
      </trkpt>
      <trkpt lat="48.73239" lon="7.35672">
        <ele>234.245239</ele>
        <time>2010-06-30T14:56:17Z</time>
      </trkpt>
      <trkpt lat="48.73234" lon="7.35651">
        <ele>235.819458</ele>
        <time>2010-06-30T14:56:21Z</time>
      </trkpt>
      <trkpt lat="48.73227" lon="7.3563">
        <ele>236.850708</ele>
        <time>2010-06-30T14:56:25Z</time>
      </trkpt>
      <trkpt lat="48.7322" lon="7.35609">
        <ele>237.874146</ele>
        <time>2010-06-30T14:56:29Z</time>
      </trkpt>
      <trkpt lat="48.73214" lon="7.35586">
        <ele>239.268677</ele>
        <time>2010-06-30T14:56:34Z</time>
      </trkpt>
      <trkpt lat="48.73209" lon="7.35566">
        <ele>239.272583</ele>
        <time>2010-06-30T14:56:38Z</time>
      </trkpt>
      <trkpt lat="48.73203" lon="7.35544">
        <ele>240.534302</ele>
        <time>2010-06-30T14:56:42Z</time>
      </trkpt>
      <trkpt lat="48.73196" lon="7.35522">
        <ele>240.671021</ele>
        <time>2010-06-30T14:56:46Z</time>
      </trkpt>
      <trkpt lat="48.73188" lon="7.35503">
        <ele>240.421021</ele>
        <time>2010-06-30T14:56:50Z</time>
      </trkpt>
      <trkpt lat="48.73171" lon="7.35499">
        <ele>240.772583</ele>
        <time>2010-06-30T14:56:54Z</time>
      </trkpt>
      <trkpt lat="48.73155" lon="7.35499">
        <ele>239.995239</ele>
        <time>2010-06-30T14:56:58Z</time>
      </trkpt>
      <trkpt lat="48.73138" lon="7.35496">
        <ele>241.018677</ele>
        <time>2010-06-30T14:57:02Z</time>
      </trkpt>
      <trkpt lat="48.73128" lon="7.35478">
        <ele>241.643677</ele>
        <time>2010-06-30T14:57:06Z</time>
      </trkpt>
      <trkpt lat="48.73118" lon="7.35457">
        <ele>241.823364</ele>
        <time>2010-06-30T14:57:10Z</time>
      </trkpt>
      <trkpt lat="48.73109" lon="7.35437">
        <ele>242.003052</ele>
        <time>2010-06-30T14:57:14Z</time>
      </trkpt>
      <trkpt lat="48.73103" lon="7.35419">
        <ele>241.030396</ele>
        <time>2010-06-30T14:57:17Z</time>
      </trkpt>
      <trkpt lat="48.73102" lon="7.35396">
        <ele>241.241333</ele>
        <time>2010-06-30T14:57:21Z</time>
      </trkpt>
      <trkpt lat="48.73104" lon="7.35374">
        <ele>243.264771</ele>
        <time>2010-06-30T14:57:25Z</time>
      </trkpt>
      <trkpt lat="48.7311" lon="7.35352">
        <ele>244.514771</ele>
        <time>2010-06-30T14:57:29Z</time>
      </trkpt>
      <trkpt lat="48.73116" lon="7.35329">
        <ele>245.335083</ele>
        <time>2010-06-30T14:57:33Z</time>
      </trkpt>
      <trkpt lat="48.73122" lon="7.35308">
        <ele>244.999146</ele>
        <time>2010-06-30T14:57:37Z</time>
      </trkpt>
      <trkpt lat="48.7313" lon="7.35289">
        <ele>245.296021</ele>
        <time>2010-06-30T14:57:41Z</time>
      </trkpt>
      <trkpt lat="48.73137" lon="7.3527">
        <ele>245.479614</ele>
        <time>2010-06-30T14:57:45Z</time>
      </trkpt>
      <trkpt lat="48.73144" lon="7.35248">
        <ele>246.682739</ele>
        <time>2010-06-30T14:57:50Z</time>
      </trkpt>
      <trkpt lat="48.7315" lon="7.35228">
        <ele>247.026489</ele>
        <time>2010-06-30T14:57:54Z</time>
      </trkpt>
      <trkpt lat="48.73156" lon="7.3521">
        <ele>247.585083</ele>
        <time>2010-06-30T14:57:58Z</time>
      </trkpt>
      <trkpt lat="48.73164" lon="7.35189">
        <ele>248.854614</ele>
        <time>2010-06-30T14:58:03Z</time>
      </trkpt>
      <trkpt lat="48.7317" lon="7.35167">
        <ele>250.042114</ele>
        <time>2010-06-30T14:58:08Z</time>
      </trkpt>
      <trkpt lat="48.73177" lon="7.35147">
        <ele>249.940552</ele>
        <time>2010-06-30T14:58:13Z</time>
      </trkpt>
      <trkpt lat="48.73192" lon="7.35136">
        <ele>249.948364</ele>
        <time>2010-06-30T14:58:19Z</time>
      </trkpt>
      <trkpt lat="48.73206" lon="7.35127">
        <ele>249.756958</ele>
        <time>2010-06-30T14:58:27Z</time>
      </trkpt>
      <trkpt lat="48.73219" lon="7.35131">
        <ele>251.057739</ele>
        <time>2010-06-30T14:58:34Z</time>
      </trkpt>
      <trkpt lat="48.73224" lon="7.3511">
        <ele>250.577271</ele>
        <time>2010-06-30T14:58:43Z</time>
      </trkpt>
      <trkpt lat="48.73231" lon="7.35091">
        <ele>251.069458</ele>
        <time>2010-06-30T14:58:51Z</time>
      </trkpt>
      <trkpt lat="48.73237" lon="7.35072">
        <ele>251.049927</ele>
        <time>2010-06-30T14:58:58Z</time>
      </trkpt>
      <trkpt lat="48.73241" lon="7.35052">
        <ele>251.893677</ele>
        <time>2010-06-30T14:59:05Z</time>
      </trkpt>
      <trkpt lat="48.73248" lon="7.35031">
        <ele>251.866333</ele>
        <time>2010-06-30T14:59:14Z</time>
      </trkpt>
      <trkpt lat="48.73254" lon="7.35013">
        <ele>252.893677</ele>
        <time>2010-06-30T14:59:22Z</time>
      </trkpt>
      <trkpt lat="48.73259" lon="7.34994">
        <ele>256.224854</ele>
        <time>2010-06-30T14:59:30Z</time>
      </trkpt>
      <trkpt lat="48.73266" lon="7.34975">
        <ele>260.099854</ele>
        <time>2010-06-30T14:59:40Z</time>
      </trkpt>
      <trkpt lat="48.73346" lon="7.34878">
        <ele>271.342041</ele>
        <time>2010-06-30T15:00:41Z</time>
      </trkpt>
      <trkpt lat="48.73364" lon="7.34795">
        <ele>276.287354</ele>
        <time>2010-06-30T15:01:08Z</time>
      </trkpt>
      <trkpt lat="48.73361" lon="7.34773">
        <ele>278.177979</ele>
        <time>2010-06-30T15:01:16Z</time>
      </trkpt>
      <trkpt lat="48.73351" lon="7.34759">
        <ele>280.615479</ele>
        <time>2010-06-30T15:01:22Z</time>
      </trkpt>
      <trkpt lat="48.73341" lon="7.34744">
        <ele>281.060791</ele>
        <time>2010-06-30T15:01:28Z</time>
      </trkpt>
      <trkpt lat="48.7333" lon="7.34728">
        <ele>280.029541</ele>
        <time>2010-06-30T15:01:34Z</time>
      </trkpt>
      <trkpt lat="48.73321" lon="7.3471">
        <ele>281.537354</ele>
        <time>2010-06-30T15:01:41Z</time>
      </trkpt>
      <trkpt lat="48.73312" lon="7.34693">
        <ele>282.599854</ele>
        <time>2010-06-30T15:01:46Z</time>
      </trkpt>
      <trkpt lat="48.73301" lon="7.34676">
        <ele>283.912354</ele>
        <time>2010-06-30T15:01:51Z</time>
      </trkpt>
      <trkpt lat="48.73291" lon="7.34657">
        <ele>284.490479</ele>
        <time>2010-06-30T15:01:57Z</time>
      </trkpt>
      <trkpt lat="48.7328" lon="7.34639">
        <ele>285.162354</ele>
        <time>2010-06-30T15:02:03Z</time>
      </trkpt>
      <trkpt lat="48.73271" lon="7.34624">
        <ele>289.045166</ele>
        <time>2010-06-30T15:02:08Z</time>
      </trkpt>
      <trkpt lat="48.73262" lon="7.34606">
        <ele>290.763916</ele>
        <time>2010-06-30T15:02:13Z</time>
      </trkpt>
      <trkpt lat="48.73252" lon="7.34587">
        <ele>293.029541</ele>
        <time>2010-06-30T15:02:19Z</time>
      </trkpt>
      <trkpt lat="48.73241" lon="7.3457">
        <ele>292.920166</ele>
        <time>2010-06-30T15:02:25Z</time>
      </trkpt>
      <trkpt lat="48.73233" lon="7.34553">
        <ele>294.638916</ele>
        <time>2010-06-30T15:02:31Z</time>
      </trkpt>
      <trkpt lat="48.73224" lon="7.34536">
        <ele>294.849854</ele>
        <time>2010-06-30T15:02:37Z</time>
      </trkpt>
      <trkpt lat="48.73213" lon="7.34519">
        <ele>296.279541</ele>
        <time>2010-06-30T15:02:43Z</time>
      </trkpt>
      <trkpt lat="48.73203" lon="7.34502">
        <ele>296.974854</ele>
        <time>2010-06-30T15:02:50Z</time>
      </trkpt>
      <trkpt lat="48.73193" lon="7.34485">
        <ele>296.693604</ele>
        <time>2010-06-30T15:02:56Z</time>
      </trkpt>
      <trkpt lat="48.73183" lon="7.34468">
        <ele>296.185791</ele>
        <time>2010-06-30T15:03:02Z</time>
      </trkpt>
      <trkpt lat="48.73172" lon="7.34454">
        <ele>296.490479</ele>
        <time>2010-06-30T15:03:07Z</time>
      </trkpt>
      <trkpt lat="48.73159" lon="7.34439">
        <ele>299.138916</ele>
        <time>2010-06-30T15:03:12Z</time>
      </trkpt>
      <trkpt lat="48.73147" lon="7.34424">
        <ele>302.146729</ele>
        <time>2010-06-30T15:03:17Z</time>
      </trkpt>
      <trkpt lat="48.73138" lon="7.3441">
        <ele>305.006104</ele>
        <time>2010-06-30T15:03:22Z</time>
      </trkpt>
      <trkpt lat="48.73125" lon="7.34398">
        <ele>305.693604</ele>
        <time>2010-06-30T15:03:29Z</time>
      </trkpt>
      <trkpt lat="48.73114" lon="7.34383">
        <ele>305.560791</ele>
        <time>2010-06-30T15:03:36Z</time>
      </trkpt>
      <trkpt lat="48.73103" lon="7.34366">
        <ele>304.787354</ele>
        <time>2010-06-30T15:03:43Z</time>
      </trkpt>
      <trkpt lat="48.73093" lon="7.34353">
        <ele>304.576416</ele>
        <time>2010-06-30T15:03:49Z</time>
      </trkpt>
      <trkpt lat="48.73082" lon="7.34339">
        <ele>303.842041</ele>
        <time>2010-06-30T15:03:53Z</time>
      </trkpt>
      <trkpt lat="48.73071" lon="7.34325">
        <ele>302.974854</ele>
        <time>2010-06-30T15:03:59Z</time>
      </trkpt>
      <trkpt lat="48.73056" lon="7.34309">
        <ele>300.373291</ele>
        <time>2010-06-30T15:04:05Z</time>
      </trkpt>
      <trkpt lat="48.73045" lon="7.34297">
        <ele>298.896729</ele>
        <time>2010-06-30T15:04:10Z</time>
      </trkpt>
      <trkpt lat="48.73029" lon="7.3428">
        <ele>296.967041</ele>
        <time>2010-06-30T15:04:15Z</time>
      </trkpt>
      <trkpt lat="48.73015" lon="7.34264">
        <ele>295.271729</ele>
        <time>2010-06-30T15:04:20Z</time>
      </trkpt>
      <trkpt lat="48.73003" lon="7.34248">
        <ele>293.826416</ele>
        <time>2010-06-30T15:04:24Z</time>
      </trkpt>
      <trkpt lat="48.72991" lon="7.34235">
        <ele>294.756104</ele>
        <time>2010-06-30T15:04:27Z</time>
      </trkpt>
      <trkpt lat="48.72978" lon="7.34216">
        <ele>294.912354</ele>
        <time>2010-06-30T15:04:31Z</time>
      </trkpt>
      <trkpt lat="48.72965" lon="7.34202">
        <ele>296.342041</ele>
        <time>2010-06-30T15:04:34Z</time>
      </trkpt>
      <trkpt lat="48.72954" lon="7.34187">
        <ele>296.646729</ele>
        <time>2010-06-30T15:04:39Z</time>
      </trkpt>
      <trkpt lat="48.72944" lon="7.34171">
        <ele>296.670166</ele>
        <time>2010-06-30T15:04:45Z</time>
      </trkpt>
      <trkpt lat="48.72933" lon="7.34158">
        <ele>297.818604</ele>
        <time>2010-06-30T15:04:50Z</time>
      </trkpt>
      <trkpt lat="48.72924" lon="7.34142">
        <ele>298.685791</ele>
        <time>2010-06-30T15:04:56Z</time>
      </trkpt>
      <trkpt lat="48.72916" lon="7.34123">
        <ele>299.467041</ele>
        <time>2010-06-30T15:05:04Z</time>
      </trkpt>
      <trkpt lat="48.72905" lon="7.34108">
        <ele>300.513916</ele>
        <time>2010-06-30T15:05:10Z</time>
      </trkpt>
      <trkpt lat="48.72895" lon="7.34093">
        <ele>299.013916</ele>
        <time>2010-06-30T15:05:22Z</time>
      </trkpt>
      <trkpt lat="48.72888" lon="7.34072">
        <ele>299.123291</ele>
        <time>2010-06-30T15:05:30Z</time>
      </trkpt>
      <trkpt lat="48.72882" lon="7.34052">
        <ele>295.451416</ele>
        <time>2010-06-30T15:05:37Z</time>
      </trkpt>
      <trkpt lat="48.72874" lon="7.34035">
        <ele>292.896729</ele>
        <time>2010-06-30T15:05:43Z</time>
      </trkpt>
      <trkpt lat="48.72872" lon="7.34014">
        <ele>290.568604</ele>
        <time>2010-06-30T15:05:49Z</time>
      </trkpt>
      <trkpt lat="48.72862" lon="7.33997">
        <ele>287.271729</ele>
        <time>2010-06-30T15:05:55Z</time>
      </trkpt>
      <trkpt lat="48.72852" lon="7.33978">
        <ele>286.131104</ele>
        <time>2010-06-30T15:06:00Z</time>
      </trkpt>
      <trkpt lat="48.72844" lon="7.3396">
        <ele>283.849854</ele>
        <time>2010-06-30T15:06:05Z</time>
      </trkpt>
      <trkpt lat="48.72839" lon="7.33938">
        <ele>281.990479</ele>
        <time>2010-06-30T15:06:11Z</time>
      </trkpt>
      <trkpt lat="48.72836" lon="7.33917">
        <ele>283.467041</ele>
        <time>2010-06-30T15:06:15Z</time>
      </trkpt>
      <trkpt lat="48.72824" lon="7.33904">
        <ele>286.552979</ele>
        <time>2010-06-30T15:06:18Z</time>
      </trkpt>
      <trkpt lat="48.72823" lon="7.33882">
        <ele>289.904541</ele>
        <time>2010-06-30T15:06:22Z</time>
      </trkpt>
      <trkpt lat="48.72824" lon="7.3386">
        <ele>296.060791</ele>
        <time>2010-06-30T15:06:26Z</time>
      </trkpt>
      <trkpt lat="48.72817" lon="7.3384">
        <ele>302.263916</ele>
        <time>2010-06-30T15:06:30Z</time>
      </trkpt>
      <trkpt lat="48.7281" lon="7.3382">
        <ele>305.842041</ele>
        <time>2010-06-30T15:06:35Z</time>
      </trkpt>
      <trkpt lat="48.72804" lon="7.33803">
        <ele>312.365479</ele>
        <time>2010-06-30T15:06:43Z</time>
      </trkpt>
      <trkpt lat="48.72798" lon="7.33783">
        <ele>312.256104</ele>
        <time>2010-06-30T15:06:49Z</time>
      </trkpt>
      <trkpt lat="48.72789" lon="7.33766">
        <ele>314.818604</ele>
        <time>2010-06-30T15:06:54Z</time>
      </trkpt>
      <trkpt lat="48.7278" lon="7.33748">
        <ele>317.271729</ele>
        <time>2010-06-30T15:07:00Z</time>
      </trkpt>
      <trkpt lat="48.72769" lon="7.33729">
        <ele>317.638916</ele>
        <time>2010-06-30T15:07:05Z</time>
      </trkpt>
      <trkpt lat="48.7276" lon="7.33711">
        <ele>318.107666</ele>
        <time>2010-06-30T15:07:10Z</time>
      </trkpt>
      <trkpt lat="48.7275" lon="7.33695">
        <ele>316.545166</ele>
        <time>2010-06-30T15:07:15Z</time>
      </trkpt>
      <trkpt lat="48.7274" lon="7.33681">
        <ele>316.295166</ele>
        <time>2010-06-30T15:07:19Z</time>
      </trkpt>
      <trkpt lat="48.72729" lon="7.33665">
        <ele>315.568604</ele>
        <time>2010-06-30T15:07:24Z</time>
      </trkpt>
      <trkpt lat="48.72716" lon="7.33648">
        <ele>314.521729</ele>
        <time>2010-06-30T15:07:29Z</time>
      </trkpt>
      <trkpt lat="48.72706" lon="7.3363">
        <ele>313.592041</ele>
        <time>2010-06-30T15:07:33Z</time>
      </trkpt>
      <trkpt lat="48.72694" lon="7.33618">
        <ele>313.568604</ele>
        <time>2010-06-30T15:07:37Z</time>
      </trkpt>
      <trkpt lat="48.72683" lon="7.33605">
        <ele>311.654541</ele>
        <time>2010-06-30T15:07:43Z</time>
      </trkpt>
      <trkpt lat="48.72673" lon="7.33592">
        <ele>309.396729</ele>
        <time>2010-06-30T15:07:48Z</time>
      </trkpt>
      <trkpt lat="48.7266" lon="7.3358">
        <ele>308.974854</ele>
        <time>2010-06-30T15:07:52Z</time>
      </trkpt>
      <trkpt lat="48.72648" lon="7.33569">
        <ele>309.545166</ele>
        <time>2010-06-30T15:07:57Z</time>
      </trkpt>
      <trkpt lat="48.72635" lon="7.33554">
        <ele>311.568604</ele>
        <time>2010-06-30T15:08:02Z</time>
      </trkpt>
      <trkpt lat="48.72622" lon="7.33542">
        <ele>312.904541</ele>
        <time>2010-06-30T15:08:08Z</time>
      </trkpt>
      <trkpt lat="48.7261" lon="7.33532">
        <ele>311.217041</ele>
        <time>2010-06-30T15:08:12Z</time>
      </trkpt>
      <trkpt lat="48.72597" lon="7.33523">
        <ele>314.701416</ele>
        <time>2010-06-30T15:08:15Z</time>
      </trkpt>
      <trkpt lat="48.72583" lon="7.33512">
        <ele>315.748291</ele>
        <time>2010-06-30T15:08:19Z</time>
      </trkpt>
      <trkpt lat="48.72569" lon="7.33501">
        <ele>315.388916</ele>
        <time>2010-06-30T15:08:23Z</time>
      </trkpt>
      <trkpt lat="48.72557" lon="7.33491">
        <ele>316.240479</ele>
        <time>2010-06-30T15:08:27Z</time>
      </trkpt>
      <trkpt lat="48.72544" lon="7.3348">
        <ele>315.435791</ele>
        <time>2010-06-30T15:08:31Z</time>
      </trkpt>
      <trkpt lat="48.72527" lon="7.33467">
        <ele>316.099854</ele>
        <time>2010-06-30T15:08:35Z</time>
      </trkpt>
      <trkpt lat="48.72513" lon="7.33455">
        <ele>317.756104</ele>
        <time>2010-06-30T15:08:38Z</time>
      </trkpt>
      <trkpt lat="48.725" lon="7.33446">
        <ele>318.967041</ele>
        <time>2010-06-30T15:08:43Z</time>
      </trkpt>
      <trkpt lat="48.72486" lon="7.33436">
        <ele>320.482666</ele>
        <time>2010-06-30T15:08:48Z</time>
      </trkpt>
      <trkpt lat="48.72471" lon="7.33426">
        <ele>321.045166</ele>
        <time>2010-06-30T15:08:52Z</time>
      </trkpt>
      <trkpt lat="48.7246" lon="7.33414">
        <ele>321.787354</ele>
        <time>2010-06-30T15:08:56Z</time>
      </trkpt>
      <trkpt lat="48.72445" lon="7.33402">
        <ele>321.498291</ele>
        <time>2010-06-30T15:09:00Z</time>
      </trkpt>
      <trkpt lat="48.72432" lon="7.33392">
        <ele>322.193604</ele>
        <time>2010-06-30T15:09:04Z</time>
      </trkpt>
      <trkpt lat="48.72421" lon="7.33378">
        <ele>321.787354</ele>
        <time>2010-06-30T15:09:11Z</time>
      </trkpt>
      <trkpt lat="48.72409" lon="7.33363">
        <ele>321.717041</ele>
        <time>2010-06-30T15:09:17Z</time>
      </trkpt>
      <trkpt lat="48.72397" lon="7.33352">
        <ele>322.068604</ele>
        <time>2010-06-30T15:09:23Z</time>
      </trkpt>
      <trkpt lat="48.72387" lon="7.33337">
        <ele>321.943604</ele>
        <time>2010-06-30T15:09:30Z</time>
      </trkpt>
      <trkpt lat="48.72374" lon="7.33324">
        <ele>322.498291</ele>
        <time>2010-06-30T15:09:34Z</time>
      </trkpt>
      <trkpt lat="48.72362" lon="7.33312">
        <ele>322.552979</ele>
        <time>2010-06-30T15:09:40Z</time>
      </trkpt>
      <trkpt lat="48.7235" lon="7.33301">
        <ele>323.388916</ele>
        <time>2010-06-30T15:09:45Z</time>
      </trkpt>
      <trkpt lat="48.72335" lon="7.33291">
        <ele>323.959229</ele>
        <time>2010-06-30T15:09:50Z</time>
      </trkpt>
      <trkpt lat="48.72316" lon="7.33283">
        <ele>326.365479</ele>
        <time>2010-06-30T15:09:55Z</time>
      </trkpt>
      <trkpt lat="48.723" lon="7.33273">
        <ele>326.256104</ele>
        <time>2010-06-30T15:10:01Z</time>
      </trkpt>
      <trkpt lat="48.72282" lon="7.33272">
        <ele>327.513916</ele>
        <time>2010-06-30T15:10:11Z</time>
      </trkpt>
      <trkpt lat="48.72266" lon="7.33264">
        <ele>327.568604</ele>
        <time>2010-06-30T15:10:17Z</time>
      </trkpt>
      <trkpt lat="48.72252" lon="7.3326">
        <ele>328.052979</ele>
        <time>2010-06-30T15:10:22Z</time>
      </trkpt>
      <trkpt lat="48.72237" lon="7.33257">
        <ele>327.998291</ele>
        <time>2010-06-30T15:10:27Z</time>
      </trkpt>
      <trkpt lat="48.7222" lon="7.33253">
        <ele>327.295166</ele>
        <time>2010-06-30T15:10:30Z</time>
      </trkpt>
      <trkpt lat="48.72206" lon="7.33246">
        <ele>328.381104</ele>
        <time>2010-06-30T15:10:34Z</time>
      </trkpt>
      <trkpt lat="48.72193" lon="7.33238">
        <ele>328.904541</ele>
        <time>2010-06-30T15:10:39Z</time>
      </trkpt>
      <trkpt lat="48.72179" lon="7.33224">
        <ele>329.732666</ele>
        <time>2010-06-30T15:10:45Z</time>
      </trkpt>
      <trkpt lat="48.72171" lon="7.33206">
        <ele>329.412354</ele>
        <time>2010-06-30T15:10:49Z</time>
      </trkpt>
      <trkpt lat="48.72163" lon="7.3319">
        <ele>328.263916</ele>
        <time>2010-06-30T15:10:52Z</time>
      </trkpt>
      <trkpt lat="48.72155" lon="7.33172">
        <ele>329.334229</ele>
        <time>2010-06-30T15:10:56Z</time>
      </trkpt>
      <trkpt lat="48.72149" lon="7.33151">
        <ele>329.967041</ele>
        <time>2010-06-30T15:11:01Z</time>
      </trkpt>
      <trkpt lat="48.72146" lon="7.3313">
        <ele>334.685791</ele>
        <time>2010-06-30T15:11:06Z</time>
      </trkpt>
      <trkpt lat="48.72144" lon="7.33107">
        <ele>336.248291</ele>
        <time>2010-06-30T15:11:11Z</time>
      </trkpt>
      <trkpt lat="48.72141" lon="7.33084">
        <ele>338.592041</ele>
        <time>2010-06-30T15:11:16Z</time>
      </trkpt>
      <trkpt lat="48.72141" lon="7.33061">
        <ele>340.060791</ele>
        <time>2010-06-30T15:11:21Z</time>
      </trkpt>
      <trkpt lat="48.72139" lon="7.33039">
        <ele>341.209229</ele>
        <time>2010-06-30T15:11:26Z</time>
      </trkpt>
      <trkpt lat="48.72137" lon="7.33018">
        <ele>341.279541</ele>
        <time>2010-06-30T15:11:31Z</time>
      </trkpt>
      <trkpt lat="48.72138" lon="7.32994">
        <ele>342.138916</ele>
        <time>2010-06-30T15:11:36Z</time>
      </trkpt>
      <trkpt lat="48.72139" lon="7.32974">
        <ele>345.256104</ele>
        <time>2010-06-30T15:11:40Z</time>
      </trkpt>
      <trkpt lat="48.72139" lon="7.3295">
        <ele>347.615479</ele>
        <time>2010-06-30T15:11:45Z</time>
      </trkpt>
      <trkpt lat="48.72142" lon="7.32927">
        <ele>347.592041</ele>
        <time>2010-06-30T15:11:50Z</time>
      </trkpt>
      <trkpt lat="48.72142" lon="7.32905">
        <ele>347.599854</ele>
        <time>2010-06-30T15:11:55Z</time>
      </trkpt>
      <trkpt lat="48.72139" lon="7.32882">
        <ele>345.826416</ele>
        <time>2010-06-30T15:12:00Z</time>
      </trkpt>
      <trkpt lat="48.72138" lon="7.32862">
        <ele>347.513916</ele>
        <time>2010-06-30T15:12:04Z</time>
      </trkpt>
      <trkpt lat="48.72138" lon="7.32839">
        <ele>346.904541</ele>
        <time>2010-06-30T15:12:10Z</time>
      </trkpt>
      <trkpt lat="48.72128" lon="7.32817">
        <ele>347.240479</ele>
        <time>2010-06-30T15:12:15Z</time>
      </trkpt>
      <trkpt lat="48.72118" lon="7.32797">
        <ele>345.623291</ele>
        <time>2010-06-30T15:12:19Z</time>
      </trkpt>
      <trkpt lat="48.72108" lon="7.3278">
        <ele>344.224854</ele>
        <time>2010-06-30T15:12:24Z</time>
      </trkpt>
      <trkpt lat="48.72098" lon="7.32763">
        <ele>344.185791</ele>
        <time>2010-06-30T15:12:28Z</time>
      </trkpt>
      <trkpt lat="48.72083" lon="7.32752">
        <ele>344.154541</ele>
        <time>2010-06-30T15:12:32Z</time>
      </trkpt>
      <trkpt lat="48.7207" lon="7.32743">
        <ele>342.779541</ele>
        <time>2010-06-30T15:12:36Z</time>
      </trkpt>
      <trkpt lat="48.72056" lon="7.32736">
        <ele>341.263916</ele>
        <time>2010-06-30T15:12:40Z</time>
      </trkpt>
      <trkpt lat="48.72043" lon="7.3273">
        <ele>339.646729</ele>
        <time>2010-06-30T15:12:44Z</time>
      </trkpt>
      <trkpt lat="48.72026" lon="7.32726">
        <ele>338.107666</ele>
        <time>2010-06-30T15:12:49Z</time>
      </trkpt>
      <trkpt lat="48.7201" lon="7.32727">
        <ele>336.974854</ele>
        <time>2010-06-30T15:12:53Z</time>
      </trkpt>
      <trkpt lat="48.71996" lon="7.32728">
        <ele>335.576416</ele>
        <time>2010-06-30T15:12:57Z</time>
      </trkpt>
      <trkpt lat="48.7198" lon="7.32726">
        <ele>334.279541</ele>
        <time>2010-06-30T15:13:02Z</time>
      </trkpt>
      <trkpt lat="48.71965" lon="7.32732">
        <ele>333.217041</ele>
        <time>2010-06-30T15:13:07Z</time>
      </trkpt>
      <trkpt lat="48.7195" lon="7.32736">
        <ele>332.646729</ele>
        <time>2010-06-30T15:13:12Z</time>
      </trkpt>
      <trkpt lat="48.71936" lon="7.32745">
        <ele>331.068604</ele>
        <time>2010-06-30T15:13:17Z</time>
      </trkpt>
      <trkpt lat="48.71923" lon="7.32755">
        <ele>330.177979</ele>
        <time>2010-06-30T15:13:21Z</time>
      </trkpt>
      <trkpt lat="48.71907" lon="7.32767">
        <ele>329.568604</ele>
        <time>2010-06-30T15:13:26Z</time>
      </trkpt>
      <trkpt lat="48.71894" lon="7.32779">
        <ele>328.427979</ele>
        <time>2010-06-30T15:13:30Z</time>
      </trkpt>
      <trkpt lat="48.71884" lon="7.32794">
        <ele>328.677979</ele>
        <time>2010-06-30T15:13:34Z</time>
      </trkpt>
      <trkpt lat="48.71868" lon="7.32805">
        <ele>327.896729</ele>
        <time>2010-06-30T15:13:39Z</time>
      </trkpt>
      <trkpt lat="48.71876" lon="7.32832">
        <ele>331.513916</ele>
        <time>2010-06-30T15:13:42Z</time>
      </trkpt>
      <trkpt lat="48.71862" lon="7.32843">
        <ele>333.748291</ele>
        <time>2010-06-30T15:13:47Z</time>
      </trkpt>
      <trkpt lat="48.71847" lon="7.32847">
        <ele>335.959229</ele>
        <time>2010-06-30T15:13:52Z</time>
      </trkpt>
      <trkpt lat="48.71832" lon="7.32852">
        <ele>339.592041</ele>
        <time>2010-06-30T15:13:56Z</time>
      </trkpt>
      <trkpt lat="48.71816" lon="7.32849">
        <ele>341.795166</ele>
        <time>2010-06-30T15:14:00Z</time>
      </trkpt>
      <trkpt lat="48.71801" lon="7.32844">
        <ele>343.521729</ele>
        <time>2010-06-30T15:14:04Z</time>
      </trkpt>
      <trkpt lat="48.71785" lon="7.3284">
        <ele>345.662354</ele>
        <time>2010-06-30T15:14:08Z</time>
      </trkpt>
      <trkpt lat="48.71771" lon="7.32836">
        <ele>347.685791</ele>
        <time>2010-06-30T15:14:11Z</time>
      </trkpt>
      <trkpt lat="48.71758" lon="7.32835">
        <ele>350.295166</ele>
        <time>2010-06-30T15:14:14Z</time>
      </trkpt>
      <trkpt lat="48.71745" lon="7.32832">
        <ele>351.849854</ele>
        <time>2010-06-30T15:14:17Z</time>
      </trkpt>
      <trkpt lat="48.71729" lon="7.32834">
        <ele>355.052979</ele>
        <time>2010-06-30T15:14:22Z</time>
      </trkpt>
      <trkpt lat="48.71714" lon="7.32837">
        <ele>356.490479</ele>
        <time>2010-06-30T15:14:25Z</time>
      </trkpt>
      <trkpt lat="48.71698" lon="7.32848">
        <ele>357.404541</ele>
        <time>2010-06-30T15:14:29Z</time>
      </trkpt>
      <trkpt lat="48.71685" lon="7.32858">
        <ele>358.302979</ele>
        <time>2010-06-30T15:14:32Z</time>
      </trkpt>
      <trkpt lat="48.71673" lon="7.3287">
        <ele>360.107666</ele>
        <time>2010-06-30T15:14:35Z</time>
      </trkpt>
      <trkpt lat="48.71661" lon="7.32886">
        <ele>361.982666</ele>
        <time>2010-06-30T15:14:39Z</time>
      </trkpt>
      <trkpt lat="48.71651" lon="7.32905">
        <ele>363.170166</ele>
        <time>2010-06-30T15:14:43Z</time>
      </trkpt>
      <trkpt lat="48.71638" lon="7.32917">
        <ele>365.092041</ele>
        <time>2010-06-30T15:14:48Z</time>
      </trkpt>
      <trkpt lat="48.71621" lon="7.32913">
        <ele>366.717041</ele>
        <time>2010-06-30T15:14:54Z</time>
      </trkpt>
      <trkpt lat="48.71607" lon="7.32912">
        <ele>368.060791</ele>
        <time>2010-06-30T15:14:59Z</time>
      </trkpt>
      <trkpt lat="48.71591" lon="7.32909">
        <ele>369.342041</ele>
        <time>2010-06-30T15:15:04Z</time>
      </trkpt>
      <trkpt lat="48.71576" lon="7.32905">
        <ele>369.912354</ele>
        <time>2010-06-30T15:15:10Z</time>
      </trkpt>
      <trkpt lat="48.71561" lon="7.32904">
        <ele>371.748291</ele>
        <time>2010-06-30T15:15:16Z</time>
      </trkpt>
      <trkpt lat="48.71547" lon="7.32906">
        <ele>371.849854</ele>
        <time>2010-06-30T15:15:19Z</time>
      </trkpt>
      <trkpt lat="48.71533" lon="7.32904">
        <ele>372.740479</ele>
        <time>2010-06-30T15:15:23Z</time>
      </trkpt>
      <trkpt lat="48.71517" lon="7.329">
        <ele>373.068604</ele>
        <time>2010-06-30T15:15:28Z</time>
      </trkpt>
      <trkpt lat="48.71504" lon="7.32893">
        <ele>373.537354</ele>
        <time>2010-06-30T15:15:32Z</time>
      </trkpt>
      <trkpt lat="48.71489" lon="7.32892">
        <ele>373.545166</ele>
        <time>2010-06-30T15:15:36Z</time>
      </trkpt>
      <trkpt lat="48.71472" lon="7.32894">
        <ele>373.443604</ele>
        <time>2010-06-30T15:15:40Z</time>
      </trkpt>
      <trkpt lat="48.71455" lon="7.32895">
        <ele>373.756104</ele>
        <time>2010-06-30T15:15:44Z</time>
      </trkpt>
      <trkpt lat="48.7144" lon="7.32895">
        <ele>373.654541</ele>
        <time>2010-06-30T15:15:47Z</time>
      </trkpt>
      <trkpt lat="48.71426" lon="7.32897">
        <ele>373.693604</ele>
        <time>2010-06-30T15:15:50Z</time>
      </trkpt>
      <trkpt lat="48.71412" lon="7.32897">
        <ele>373.646729</ele>
        <time>2010-06-30T15:15:54Z</time>
      </trkpt>
      <trkpt lat="48.71398" lon="7.32902">
        <ele>373.365479</ele>
        <time>2010-06-30T15:15:58Z</time>
      </trkpt>
      <trkpt lat="48.71383" lon="7.32903">
        <ele>373.435791</ele>
        <time>2010-06-30T15:16:02Z</time>
      </trkpt>
      <trkpt lat="48.71368" lon="7.32899">
        <ele>372.732666</ele>
        <time>2010-06-30T15:16:06Z</time>
      </trkpt>
      <trkpt lat="48.71354" lon="7.32902">
        <ele>371.623291</ele>
        <time>2010-06-30T15:16:12Z</time>
      </trkpt>
      <trkpt lat="48.7134" lon="7.32912">
        <ele>370.881104</ele>
        <time>2010-06-30T15:16:17Z</time>
      </trkpt>
      <trkpt lat="48.71323" lon="7.3291">
        <ele>370.756104</ele>
        <time>2010-06-30T15:16:21Z</time>
      </trkpt>
      <trkpt lat="48.71309" lon="7.32906">
        <ele>370.849854</ele>
        <time>2010-06-30T15:16:24Z</time>
      </trkpt>
      <trkpt lat="48.71295" lon="7.32904">
        <ele>370.545166</ele>
        <time>2010-06-30T15:16:28Z</time>
      </trkpt>
      <trkpt lat="48.71279" lon="7.32899">
        <ele>370.545166</ele>
        <time>2010-06-30T15:16:35Z</time>
      </trkpt>
      <trkpt lat="48.71264" lon="7.32894">
        <ele>371.045166</ele>
        <time>2010-06-30T15:16:40Z</time>
      </trkpt>
      <trkpt lat="48.7125" lon="7.32884">
        <ele>371.248291</ele>
        <time>2010-06-30T15:16:47Z</time>
      </trkpt>
      <trkpt lat="48.71236" lon="7.32867">
        <ele>371.763916</ele>
        <time>2010-06-30T15:16:49Z</time>
      </trkpt>
      <trkpt lat="48.71224" lon="7.32849">
        <ele>371.857666</ele>
        <time>2010-06-30T15:16:53Z</time>
      </trkpt>
      <trkpt lat="48.71214" lon="7.32834">
        <ele>370.990479</ele>
        <time>2010-06-30T15:16:57Z</time>
      </trkpt>
      <trkpt lat="48.712" lon="7.32817">
        <ele>370.646729</ele>
        <time>2010-06-30T15:17:02Z</time>
      </trkpt>
      <trkpt lat="48.71189" lon="7.32804">
        <ele>370.388916</ele>
        <time>2010-06-30T15:17:05Z</time>
      </trkpt>
      <trkpt lat="48.71176" lon="7.32792">
        <ele>369.185791</ele>
        <time>2010-06-30T15:17:09Z</time>
      </trkpt>
      <trkpt lat="48.71165" lon="7.32779">
        <ele>367.709229</ele>
        <time>2010-06-30T15:17:14Z</time>
      </trkpt>
      <trkpt lat="48.71152" lon="7.32764">
        <ele>365.818604</ele>
        <time>2010-06-30T15:17:19Z</time>
      </trkpt>
      <trkpt lat="48.7114" lon="7.32752">
        <ele>365.552979</ele>
        <time>2010-06-30T15:17:23Z</time>
      </trkpt>
      <trkpt lat="48.71128" lon="7.32742">
        <ele>364.717041</ele>
        <time>2010-06-30T15:17:26Z</time>
      </trkpt>
      <trkpt lat="48.71113" lon="7.32735">
        <ele>364.318604</ele>
        <time>2010-06-30T15:17:31Z</time>
      </trkpt>
      <trkpt lat="48.71103" lon="7.32717">
        <ele>363.045166</ele>
        <time>2010-06-30T15:17:38Z</time>
      </trkpt>
      <trkpt lat="48.71091" lon="7.32707">
        <ele>364.537354</ele>
        <time>2010-06-30T15:17:40Z</time>
      </trkpt>
      <trkpt lat="48.7109" lon="7.32683">
        <ele>362.888916</ele>
        <time>2010-06-30T15:17:45Z</time>
      </trkpt>
      <trkpt lat="48.7109" lon="7.32662">
        <ele>362.740479</ele>
        <time>2010-06-30T15:17:48Z</time>
      </trkpt>
      <trkpt lat="48.71096" lon="7.32639">
        <ele>362.818604</ele>
        <time>2010-06-30T15:17:52Z</time>
      </trkpt>
      <trkpt lat="48.71107" lon="7.32624">
        <ele>362.732666</ele>
        <time>2010-06-30T15:17:55Z</time>
      </trkpt>
      <trkpt lat="48.71119" lon="7.32611">
        <ele>362.420166</ele>
        <time>2010-06-30T15:17:58Z</time>
      </trkpt>
      <trkpt lat="48.71133" lon="7.32598">
        <ele>360.818604</ele>
        <time>2010-06-30T15:18:01Z</time>
      </trkpt>
      <trkpt lat="48.71147" lon="7.32579">
        <ele>361.092041</ele>
        <time>2010-06-30T15:18:04Z</time>
      </trkpt>
      <trkpt lat="48.71158" lon="7.32563">
        <ele>360.052979</ele>
        <time>2010-06-30T15:18:07Z</time>
      </trkpt>
      <trkpt lat="48.71168" lon="7.3255">
        <ele>359.060791</ele>
        <time>2010-06-30T15:18:09Z</time>
      </trkpt>
      <trkpt lat="48.71173" lon="7.32529">
        <ele>359.185791</ele>
        <time>2010-06-30T15:18:11Z</time>
      </trkpt>
      <trkpt lat="48.71183" lon="7.32516">
        <ele>360.849854</ele>
        <time>2010-06-30T15:18:13Z</time>
      </trkpt>
      <trkpt lat="48.71203" lon="7.32507">
        <ele>363.162354</ele>
        <time>2010-06-30T15:18:15Z</time>
      </trkpt>
      <trkpt lat="48.71217" lon="7.32496">
        <ele>363.849854</ele>
        <time>2010-06-30T15:18:17Z</time>
      </trkpt>
      <trkpt lat="48.71229" lon="7.32482">
        <ele>364.185791</ele>
        <time>2010-06-30T15:18:20Z</time>
      </trkpt>
      <trkpt lat="48.71238" lon="7.32463">
        <ele>363.279541</ele>
        <time>2010-06-30T15:18:24Z</time>
      </trkpt>
      <trkpt lat="48.71251" lon="7.32445">
        <ele>361.177979</ele>
        <time>2010-06-30T15:18:28Z</time>
      </trkpt>
      <trkpt lat="48.71266" lon="7.32427">
        <ele>363.552979</ele>
        <time>2010-06-30T15:18:31Z</time>
      </trkpt>
      <trkpt lat="48.71274" lon="7.32407">
        <ele>366.552979</ele>
        <time>2010-06-30T15:18:34Z</time>
      </trkpt>
      <trkpt lat="48.71283" lon="7.32389">
        <ele>367.709229</ele>
        <time>2010-06-30T15:18:37Z</time>
      </trkpt>
      <trkpt lat="48.71288" lon="7.32364">
        <ele>368.365479</ele>
        <time>2010-06-30T15:18:41Z</time>
      </trkpt>
      <trkpt lat="48.71291" lon="7.32343">
        <ele>367.388916</ele>
        <time>2010-06-30T15:18:44Z</time>
      </trkpt>
      <trkpt lat="48.71293" lon="7.32322">
        <ele>367.209229</ele>
        <time>2010-06-30T15:18:47Z</time>
      </trkpt>
      <trkpt lat="48.71292" lon="7.32297">
        <ele>365.552979</ele>
        <time>2010-06-30T15:18:50Z</time>
      </trkpt>
      <trkpt lat="48.71291" lon="7.32275">
        <ele>363.631104</ele>
        <time>2010-06-30T15:18:53Z</time>
      </trkpt>
      <trkpt lat="48.71298" lon="7.32254">
        <ele>362.748291</ele>
        <time>2010-06-30T15:18:56Z</time>
      </trkpt>
      <trkpt lat="48.71306" lon="7.32233">
        <ele>361.646729</ele>
        <time>2010-06-30T15:18:59Z</time>
      </trkpt>
      <trkpt lat="48.71317" lon="7.32213">
        <ele>361.779541</ele>
        <time>2010-06-30T15:19:03Z</time>
      </trkpt>
      <trkpt lat="48.71325" lon="7.3219">
        <ele>363.498291</ele>
        <time>2010-06-30T15:19:07Z</time>
      </trkpt>
      <trkpt lat="48.71337" lon="7.32181">
        <ele>364.927979</ele>
        <time>2010-06-30T15:19:10Z</time>
      </trkpt>
      <trkpt lat="48.71348" lon="7.32165">
        <ele>361.810791</ele>
        <time>2010-06-30T15:19:12Z</time>
      </trkpt>
      <trkpt lat="48.71356" lon="7.32146">
        <ele>363.224854</ele>
        <time>2010-06-30T15:19:15Z</time>
      </trkpt>
      <trkpt lat="48.71369" lon="7.32128">
        <ele>363.193604</ele>
        <time>2010-06-30T15:19:19Z</time>
      </trkpt>
      <trkpt lat="48.71384" lon="7.32118">
        <ele>363.662354</ele>
        <time>2010-06-30T15:19:22Z</time>
      </trkpt>
      <trkpt lat="48.71398" lon="7.32112">
        <ele>369.459229</ele>
        <time>2010-06-30T15:19:26Z</time>
      </trkpt>
      <trkpt lat="48.71415" lon="7.32103">
        <ele>368.998291</ele>
        <time>2010-06-30T15:19:29Z</time>
      </trkpt>
      <trkpt lat="48.7143" lon="7.32098">
        <ele>369.248291</ele>
        <time>2010-06-30T15:19:32Z</time>
      </trkpt>
      <trkpt lat="48.71445" lon="7.32092">
        <ele>369.568604</ele>
        <time>2010-06-30T15:19:35Z</time>
      </trkpt>
      <trkpt lat="48.7146" lon="7.32083">
        <ele>368.490479</ele>
        <time>2010-06-30T15:19:38Z</time>
      </trkpt>
      <trkpt lat="48.71473" lon="7.3207">
        <ele>372.021729</ele>
        <time>2010-06-30T15:19:41Z</time>
      </trkpt>
      <trkpt lat="48.71483" lon="7.3205">
        <ele>374.326416</ele>
        <time>2010-06-30T15:19:45Z</time>
      </trkpt>
      <trkpt lat="48.7149" lon="7.32032">
        <ele>378.787354</ele>
        <time>2010-06-30T15:19:51Z</time>
      </trkpt>
      <trkpt lat="48.71485" lon="7.32011">
        <ele>380.974854</ele>
        <time>2010-06-30T15:19:58Z</time>
      </trkpt>
      <trkpt lat="48.71475" lon="7.31996">
        <ele>383.131104</ele>
        <time>2010-06-30T15:20:04Z</time>
      </trkpt>
      <trkpt lat="48.71467" lon="7.31978">
        <ele>385.232666</ele>
        <time>2010-06-30T15:20:12Z</time>
      </trkpt>
      <trkpt lat="48.71455" lon="7.31962">
        <ele>383.881104</ele>
        <time>2010-06-30T15:20:17Z</time>
      </trkpt>
      <trkpt lat="48.71443" lon="7.31945">
        <ele>384.131104</ele>
        <time>2010-06-30T15:20:22Z</time>
      </trkpt>
      <trkpt lat="48.71429" lon="7.3193">
        <ele>383.740479</ele>
        <time>2010-06-30T15:20:27Z</time>
      </trkpt>
      <trkpt lat="48.71417" lon="7.3192">
        <ele>383.131104</ele>
        <time>2010-06-30T15:20:31Z</time>
      </trkpt>
      <trkpt lat="48.71403" lon="7.31912">
        <ele>382.521729</ele>
        <time>2010-06-30T15:20:35Z</time>
      </trkpt>
      <trkpt lat="48.71386" lon="7.31907">
        <ele>382.607666</ele>
        <time>2010-06-30T15:20:39Z</time>
      </trkpt>
      <trkpt lat="48.71369" lon="7.31902">
        <ele>381.709229</ele>
        <time>2010-06-30T15:20:43Z</time>
      </trkpt>
      <trkpt lat="48.71355" lon="7.31899">
        <ele>380.263916</ele>
        <time>2010-06-30T15:20:46Z</time>
      </trkpt>
      <trkpt lat="48.71341" lon="7.31893">
        <ele>379.084229</ele>
        <time>2010-06-30T15:20:49Z</time>
      </trkpt>
      <trkpt lat="48.71326" lon="7.31887">
        <ele>378.224854</ele>
        <time>2010-06-30T15:20:52Z</time>
      </trkpt>
      <trkpt lat="48.7131" lon="7.31885">
        <ele>377.599854</ele>
        <time>2010-06-30T15:20:56Z</time>
      </trkpt>
      <trkpt lat="48.71296" lon="7.31883">
        <ele>377.435791</ele>
        <time>2010-06-30T15:20:59Z</time>
      </trkpt>
      <trkpt lat="48.71281" lon="7.31885">
        <ele>376.779541</ele>
        <time>2010-06-30T15:21:03Z</time>
      </trkpt>
      <trkpt lat="48.71266" lon="7.31887">
        <ele>375.795166</ele>
        <time>2010-06-30T15:21:08Z</time>
      </trkpt>
      <trkpt lat="48.71251" lon="7.31893">
        <ele>374.920166</ele>
        <time>2010-06-30T15:21:13Z</time>
      </trkpt>
      <trkpt lat="48.71235" lon="7.319">
        <ele>373.748291</ele>
        <time>2010-06-30T15:21:18Z</time>
      </trkpt>
      <trkpt lat="48.71221" lon="7.31905">
        <ele>372.490479</ele>
        <time>2010-06-30T15:21:22Z</time>
      </trkpt>
      <trkpt lat="48.71206" lon="7.31906">
        <ele>374.842041</ele>
        <time>2010-06-30T15:21:26Z</time>
      </trkpt>
      <trkpt lat="48.71192" lon="7.31907">
        <ele>375.193604</ele>
        <time>2010-06-30T15:21:30Z</time>
      </trkpt>
      <trkpt lat="48.71178" lon="7.31904">
        <ele>374.959229</ele>
        <time>2010-06-30T15:21:34Z</time>
      </trkpt>
      <trkpt lat="48.71166" lon="7.31894">
        <ele>374.920166</ele>
        <time>2010-06-30T15:21:39Z</time>
      </trkpt>
      <trkpt lat="48.71153" lon="7.31879">
        <ele>376.826416</ele>
        <time>2010-06-30T15:21:47Z</time>
      </trkpt>
      <trkpt lat="48.71142" lon="7.31864">
        <ele>377.670166</ele>
        <time>2010-06-30T15:21:52Z</time>
      </trkpt>
      <trkpt lat="48.71137" lon="7.31841">
        <ele>379.467041</ele>
        <time>2010-06-30T15:22:56Z</time>
      </trkpt>
      <trkpt lat="48.71129" lon="7.31836">
        <ele>390.912354</ele>
        <time>2010-06-30T15:23:19Z</time>
      </trkpt>
      <trkpt lat="48.7112" lon="7.3182">
        <ele>392.592041</ele>
        <time>2010-06-30T15:23:27Z</time>
      </trkpt>
      <trkpt lat="48.71103" lon="7.31804">
        <ele>396.224854</ele>
        <time>2010-06-30T15:23:31Z</time>
      </trkpt>
      <trkpt lat="48.71095" lon="7.31783">
        <ele>397.709229</ele>
        <time>2010-06-30T15:23:35Z</time>
      </trkpt>
      <trkpt lat="48.71091" lon="7.31759">
        <ele>400.552979</ele>
        <time>2010-06-30T15:23:40Z</time>
      </trkpt>
      <trkpt lat="48.71083" lon="7.31739">
        <ele>401.904541</ele>
        <time>2010-06-30T15:23:44Z</time>
      </trkpt>
      <trkpt lat="48.71079" lon="7.31715">
        <ele>403.584229</ele>
        <time>2010-06-30T15:23:48Z</time>
      </trkpt>
      <trkpt lat="48.71072" lon="7.31691">
        <ele>401.365479</ele>
        <time>2010-06-30T15:23:53Z</time>
      </trkpt>
      <trkpt lat="48.71066" lon="7.31671">
        <ele>401.443604</ele>
        <time>2010-06-30T15:23:57Z</time>
      </trkpt>
      <trkpt lat="48.71059" lon="7.31649">
        <ele>399.412354</ele>
        <time>2010-06-30T15:24:02Z</time>
      </trkpt>
      <trkpt lat="48.71053" lon="7.3163">
        <ele>397.045166</ele>
        <time>2010-06-30T15:24:07Z</time>
      </trkpt>
      <trkpt lat="48.71045" lon="7.31613">
        <ele>394.279541</ele>
        <time>2010-06-30T15:24:12Z</time>
      </trkpt>
      <trkpt lat="48.71038" lon="7.31594">
        <ele>392.310791</ele>
        <time>2010-06-30T15:24:16Z</time>
      </trkpt>
      <trkpt lat="48.71033" lon="7.31575">
        <ele>390.631104</ele>
        <time>2010-06-30T15:24:20Z</time>
      </trkpt>
      <trkpt lat="48.71023" lon="7.31557">
        <ele>388.060791</ele>
        <time>2010-06-30T15:24:25Z</time>
      </trkpt>
      <trkpt lat="48.71013" lon="7.3154">
        <ele>385.107666</ele>
        <time>2010-06-30T15:24:30Z</time>
      </trkpt>
      <trkpt lat="48.71002" lon="7.31523">
        <ele>382.701416</ele>
        <time>2010-06-30T15:24:35Z</time>
      </trkpt>
      <trkpt lat="48.70991" lon="7.31511">
        <ele>381.037354</ele>
        <time>2010-06-30T15:24:40Z</time>
      </trkpt>
      <trkpt lat="48.70979" lon="7.31502">
        <ele>379.498291</ele>
        <time>2010-06-30T15:24:44Z</time>
      </trkpt>
      <trkpt lat="48.70962" lon="7.31495">
        <ele>378.427979</ele>
        <time>2010-06-30T15:24:50Z</time>
      </trkpt>
      <trkpt lat="48.70948" lon="7.31486">
        <ele>377.506104</ele>
        <time>2010-06-30T15:24:54Z</time>
      </trkpt>
      <trkpt lat="48.70932" lon="7.31481">
        <ele>374.935791</ele>
        <time>2010-06-30T15:25:00Z</time>
      </trkpt>
      <trkpt lat="48.70919" lon="7.31478">
        <ele>372.115479</ele>
        <time>2010-06-30T15:25:06Z</time>
      </trkpt>
      <trkpt lat="48.70906" lon="7.31474">
        <ele>370.451416</ele>
        <time>2010-06-30T15:25:12Z</time>
      </trkpt>
      <trkpt lat="48.70892" lon="7.31477">
        <ele>368.584229</ele>
        <time>2010-06-30T15:25:17Z</time>
      </trkpt>
      <trkpt lat="48.70878" lon="7.31482">
        <ele>366.873291</ele>
        <time>2010-06-30T15:25:22Z</time>
      </trkpt>
      <trkpt lat="48.70865" lon="7.31488">
        <ele>364.373291</ele>
        <time>2010-06-30T15:25:27Z</time>
      </trkpt>
      <trkpt lat="48.70853" lon="7.31498">
        <ele>363.623291</ele>
        <time>2010-06-30T15:25:32Z</time>
      </trkpt>
      <trkpt lat="48.7084" lon="7.31513">
        <ele>363.435791</ele>
        <time>2010-06-30T15:25:37Z</time>
      </trkpt>
      <trkpt lat="48.70825" lon="7.31526">
        <ele>362.490479</ele>
        <time>2010-06-30T15:25:42Z</time>
      </trkpt>
      <trkpt lat="48.7081" lon="7.31532">
        <ele>361.802979</ele>
        <time>2010-06-30T15:25:46Z</time>
      </trkpt>
      <trkpt lat="48.70795" lon="7.31542">
        <ele>360.881104</ele>
        <time>2010-06-30T15:25:50Z</time>
      </trkpt>
      <trkpt lat="48.70783" lon="7.31555">
        <ele>360.240479</ele>
        <time>2010-06-30T15:25:53Z</time>
      </trkpt>
      <trkpt lat="48.70769" lon="7.31562">
        <ele>359.459229</ele>
        <time>2010-06-30T15:25:56Z</time>
      </trkpt>
      <trkpt lat="48.70754" lon="7.31572">
        <ele>359.013916</ele>
        <time>2010-06-30T15:26:00Z</time>
      </trkpt>
      <trkpt lat="48.70738" lon="7.31585">
        <ele>359.006104</ele>
        <time>2010-06-30T15:26:03Z</time>
      </trkpt>
      <trkpt lat="48.70725" lon="7.31597">
        <ele>357.412354</ele>
        <time>2010-06-30T15:26:06Z</time>
      </trkpt>
      <trkpt lat="48.7071" lon="7.31607">
        <ele>357.787354</ele>
        <time>2010-06-30T15:26:09Z</time>
      </trkpt>
      <trkpt lat="48.70696" lon="7.3162">
        <ele>357.849854</ele>
        <time>2010-06-30T15:26:12Z</time>
      </trkpt>
      <trkpt lat="48.70683" lon="7.31633">
        <ele>359.529541</ele>
        <time>2010-06-30T15:26:15Z</time>
      </trkpt>
      <trkpt lat="48.70668" lon="7.31651">
        <ele>361.443604</ele>
        <time>2010-06-30T15:26:18Z</time>
      </trkpt>
      <trkpt lat="48.70655" lon="7.31663">
        <ele>367.795166</ele>
        <time>2010-06-30T15:26:20Z</time>
      </trkpt>
      <trkpt lat="48.70643" lon="7.31682">
        <ele>368.584229</ele>
        <time>2010-06-30T15:26:23Z</time>
      </trkpt>
      <trkpt lat="48.70626" lon="7.317">
        <ele>370.185791</ele>
        <time>2010-06-30T15:26:26Z</time>
      </trkpt>
      <trkpt lat="48.70612" lon="7.31719">
        <ele>371.537354</ele>
        <time>2010-06-30T15:26:29Z</time>
      </trkpt>
      <trkpt lat="48.70596" lon="7.31738">
        <ele>373.482666</ele>
        <time>2010-06-30T15:26:32Z</time>
      </trkpt>
      <trkpt lat="48.70584" lon="7.31749">
        <ele>375.381104</ele>
        <time>2010-06-30T15:26:34Z</time>
      </trkpt>
      <trkpt lat="48.70572" lon="7.31773">
        <ele>376.881104</ele>
        <time>2010-06-30T15:26:37Z</time>
      </trkpt>
      <trkpt lat="48.70564" lon="7.31796">
        <ele>377.826416</ele>
        <time>2010-06-30T15:26:40Z</time>
      </trkpt>
      <trkpt lat="48.70553" lon="7.31814">
        <ele>376.732666</ele>
        <time>2010-06-30T15:26:43Z</time>
      </trkpt>
      <trkpt lat="48.70548" lon="7.31837">
        <ele>375.381104</ele>
        <time>2010-06-30T15:26:47Z</time>
      </trkpt>
      <trkpt lat="48.70543" lon="7.31858">
        <ele>374.146729</ele>
        <time>2010-06-30T15:26:50Z</time>
      </trkpt>
      <trkpt lat="48.70533" lon="7.31872">
        <ele>373.748291</ele>
        <time>2010-06-30T15:26:53Z</time>
      </trkpt>
      <trkpt lat="48.70522" lon="7.31889">
        <ele>373.474854</ele>
        <time>2010-06-30T15:26:56Z</time>
      </trkpt>
      <trkpt lat="48.70509" lon="7.31902">
        <ele>373.154541</ele>
        <time>2010-06-30T15:26:59Z</time>
      </trkpt>
      <trkpt lat="48.70491" lon="7.3191">
        <ele>372.865479</ele>
        <time>2010-06-30T15:27:02Z</time>
      </trkpt>
      <trkpt lat="48.70478" lon="7.31918">
        <ele>372.748291</ele>
        <time>2010-06-30T15:27:04Z</time>
      </trkpt>
      <trkpt lat="48.70461" lon="7.31929">
        <ele>372.959229</ele>
        <time>2010-06-30T15:27:07Z</time>
      </trkpt>
      <trkpt lat="48.70448" lon="7.31938">
        <ele>373.013916</ele>
        <time>2010-06-30T15:27:09Z</time>
      </trkpt>
      <trkpt lat="48.70432" lon="7.31952">
        <ele>373.427979</ele>
        <time>2010-06-30T15:27:12Z</time>
      </trkpt>
      <trkpt lat="48.70417" lon="7.31966">
        <ele>373.224854</ele>
        <time>2010-06-30T15:27:15Z</time>
      </trkpt>
      <trkpt lat="48.70405" lon="7.31981">
        <ele>373.357666</ele>
        <time>2010-06-30T15:27:17Z</time>
      </trkpt>
      <trkpt lat="48.70391" lon="7.31997">
        <ele>373.756104</ele>
        <time>2010-06-30T15:27:20Z</time>
      </trkpt>
      <trkpt lat="48.70377" lon="7.32013">
        <ele>374.146729</ele>
        <time>2010-06-30T15:27:23Z</time>
      </trkpt>
      <trkpt lat="48.70364" lon="7.32027">
        <ele>374.271729</ele>
        <time>2010-06-30T15:27:26Z</time>
      </trkpt>
      <trkpt lat="48.7035" lon="7.32039">
        <ele>374.599854</ele>
        <time>2010-06-30T15:27:29Z</time>
      </trkpt>
      <trkpt lat="48.70338" lon="7.32052">
        <ele>374.717041</ele>
        <time>2010-06-30T15:27:31Z</time>
      </trkpt>
      <trkpt lat="48.70327" lon="7.32066">
        <ele>375.357666</ele>
        <time>2010-06-30T15:27:33Z</time>
      </trkpt>
      <trkpt lat="48.70314" lon="7.3208">
        <ele>376.365479</ele>
        <time>2010-06-30T15:27:35Z</time>
      </trkpt>
      <trkpt lat="48.70303" lon="7.32093">
        <ele>376.123291</ele>
        <time>2010-06-30T15:27:37Z</time>
      </trkpt>
      <trkpt lat="48.70289" lon="7.32113">
        <ele>377.021729</ele>
        <time>2010-06-30T15:27:40Z</time>
      </trkpt>
      <trkpt lat="48.70279" lon="7.32128">
        <ele>377.818604</ele>
        <time>2010-06-30T15:27:43Z</time>
      </trkpt>
      <trkpt lat="48.70267" lon="7.32143">
        <ele>379.060791</ele>
        <time>2010-06-30T15:27:47Z</time>
      </trkpt>
      <trkpt lat="48.70253" lon="7.32154">
        <ele>380.467041</ele>
        <time>2010-06-30T15:27:52Z</time>
      </trkpt>
      <trkpt lat="48.70241" lon="7.32169">
        <ele>381.756104</ele>
        <time>2010-06-30T15:27:57Z</time>
      </trkpt>
      <trkpt lat="48.70228" lon="7.32181">
        <ele>383.271729</ele>
        <time>2010-06-30T15:28:02Z</time>
      </trkpt>
      <trkpt lat="48.70213" lon="7.32193">
        <ele>384.826416</ele>
        <time>2010-06-30T15:28:07Z</time>
      </trkpt>
      <trkpt lat="48.70201" lon="7.32206">
        <ele>386.693604</ele>
        <time>2010-06-30T15:28:12Z</time>
      </trkpt>
      <trkpt lat="48.7019" lon="7.32219">
        <ele>387.849854</ele>
        <time>2010-06-30T15:28:16Z</time>
      </trkpt>
      <trkpt lat="48.70179" lon="7.32232">
        <ele>388.904541</ele>
        <time>2010-06-30T15:28:20Z</time>
      </trkpt>
      <trkpt lat="48.70167" lon="7.32242">
        <ele>390.029541</ele>
        <time>2010-06-30T15:28:24Z</time>
      </trkpt>
      <trkpt lat="48.70155" lon="7.32255">
        <ele>391.123291</ele>
        <time>2010-06-30T15:28:28Z</time>
      </trkpt>
      <trkpt lat="48.70142" lon="7.32268">
        <ele>392.467041</ele>
        <time>2010-06-30T15:28:32Z</time>
      </trkpt>
      <trkpt lat="48.70129" lon="7.3228">
        <ele>393.420166</ele>
        <time>2010-06-30T15:28:36Z</time>
      </trkpt>
      <trkpt lat="48.70116" lon="7.32292">
        <ele>394.654541</ele>
        <time>2010-06-30T15:28:40Z</time>
      </trkpt>
      <trkpt lat="48.70102" lon="7.32305">
        <ele>395.037354</ele>
        <time>2010-06-30T15:28:44Z</time>
      </trkpt>
      <trkpt lat="48.7009" lon="7.32316">
        <ele>394.810791</ele>
        <time>2010-06-30T15:28:48Z</time>
      </trkpt>
      <trkpt lat="48.70076" lon="7.32328">
        <ele>394.810791</ele>
        <time>2010-06-30T15:28:52Z</time>
      </trkpt>
      <trkpt lat="48.70064" lon="7.32343">
        <ele>395.842041</ele>
        <time>2010-06-30T15:28:56Z</time>
      </trkpt>
      <trkpt lat="48.70052" lon="7.32359">
        <ele>397.318604</ele>
        <time>2010-06-30T15:28:59Z</time>
      </trkpt>
      <trkpt lat="48.70041" lon="7.32369">
        <ele>398.232666</ele>
        <time>2010-06-30T15:29:02Z</time>
      </trkpt>
      <trkpt lat="48.7003" lon="7.32385">
        <ele>399.029541</ele>
        <time>2010-06-30T15:29:06Z</time>
      </trkpt>
      <trkpt lat="48.70017" lon="7.32398">
        <ele>399.974854</ele>
        <time>2010-06-30T15:29:10Z</time>
      </trkpt>
      <trkpt lat="48.70004" lon="7.32411">
        <ele>400.646729</ele>
        <time>2010-06-30T15:29:14Z</time>
      </trkpt>
      <trkpt lat="48.6999" lon="7.32423">
        <ele>400.740479</ele>
        <time>2010-06-30T15:29:18Z</time>
      </trkpt>
      <trkpt lat="48.69977" lon="7.32436">
        <ele>404.881104</ele>
        <time>2010-06-30T15:29:22Z</time>
      </trkpt>
      <trkpt lat="48.69967" lon="7.32452">
        <ele>406.670166</ele>
        <time>2010-06-30T15:29:27Z</time>
      </trkpt>
      <trkpt lat="48.69957" lon="7.32468">
        <ele>406.131104</ele>
        <time>2010-06-30T15:29:32Z</time>
      </trkpt>
      <trkpt lat="48.69944" lon="7.32481">
        <ele>411.193604</ele>
        <time>2010-06-30T15:29:38Z</time>
      </trkpt>
      <trkpt lat="48.6993" lon="7.32496">
        <ele>412.615479</ele>
        <time>2010-06-30T15:29:43Z</time>
      </trkpt>
      <trkpt lat="48.69917" lon="7.32512">
        <ele>412.943604</ele>
        <time>2010-06-30T15:29:47Z</time>
      </trkpt>
      <trkpt lat="48.69904" lon="7.32529">
        <ele>414.271729</ele>
        <time>2010-06-30T15:29:51Z</time>
      </trkpt>
      <trkpt lat="48.69893" lon="7.32545">
        <ele>414.935791</ele>
        <time>2010-06-30T15:29:54Z</time>
      </trkpt>
      <trkpt lat="48.69881" lon="7.3256">
        <ele>414.381104</ele>
        <time>2010-06-30T15:29:57Z</time>
      </trkpt>
      <trkpt lat="48.69867" lon="7.32579">
        <ele>414.881104</ele>
        <time>2010-06-30T15:30:00Z</time>
      </trkpt>
      <trkpt lat="48.69851" lon="7.32597">
        <ele>414.810791</ele>
        <time>2010-06-30T15:30:03Z</time>
      </trkpt>
      <trkpt lat="48.69835" lon="7.32611">
        <ele>414.459229</ele>
        <time>2010-06-30T15:30:06Z</time>
      </trkpt>
      <trkpt lat="48.69823" lon="7.3262">
        <ele>414.099854</ele>
        <time>2010-06-30T15:30:08Z</time>
      </trkpt>
      <trkpt lat="48.69811" lon="7.32629">
        <ele>413.623291</ele>
        <time>2010-06-30T15:30:10Z</time>
      </trkpt>
      <trkpt lat="48.69793" lon="7.32643">
        <ele>413.529541</ele>
        <time>2010-06-30T15:30:13Z</time>
      </trkpt>
      <trkpt lat="48.69775" lon="7.32654">
        <ele>413.154541</ele>
        <time>2010-06-30T15:30:16Z</time>
      </trkpt>
      <trkpt lat="48.69761" lon="7.32662">
        <ele>413.068604</ele>
        <time>2010-06-30T15:30:19Z</time>
      </trkpt>
      <trkpt lat="48.69746" lon="7.32669">
        <ele>413.006104</ele>
        <time>2010-06-30T15:30:23Z</time>
      </trkpt>
      <trkpt lat="48.69735" lon="7.32671">
        <ele>405.177979</ele>
        <time>2010-06-30T15:30:31Z</time>
      </trkpt>
      <trkpt lat="48.6972" lon="7.32669">
        <ele>404.201416</ele>
        <time>2010-06-30T15:30:35Z</time>
      </trkpt>
      <trkpt lat="48.69704" lon="7.32672">
        <ele>402.037354</ele>
        <time>2010-06-30T15:30:40Z</time>
      </trkpt>
      <trkpt lat="48.69688" lon="7.32674">
        <ele>400.084229</ele>
        <time>2010-06-30T15:30:44Z</time>
      </trkpt>
      <trkpt lat="48.69672" lon="7.32672">
        <ele>399.224854</ele>
        <time>2010-06-30T15:30:49Z</time>
      </trkpt>
      <trkpt lat="48.69659" lon="7.32658">
        <ele>397.638916</ele>
        <time>2010-06-30T15:30:54Z</time>
      </trkpt>
      <trkpt lat="48.69643" lon="7.32645">
        <ele>394.013916</ele>
        <time>2010-06-30T15:30:58Z</time>
      </trkpt>
      <trkpt lat="48.69632" lon="7.3263">
        <ele>391.467041</ele>
        <time>2010-06-30T15:31:11Z</time>
      </trkpt>
      <trkpt lat="48.69646" lon="7.32635">
        <ele>387.279541</ele>
        <time>2010-06-30T15:32:28Z</time>
      </trkpt>
      <trkpt lat="48.69658" lon="7.32623">
        <ele>385.443604</ele>
        <time>2010-06-30T15:32:35Z</time>
      </trkpt>
      <trkpt lat="48.6967" lon="7.32615">
        <ele>383.310791</ele>
        <time>2010-06-30T15:32:40Z</time>
      </trkpt>
      <trkpt lat="48.69685" lon="7.3261">
        <ele>381.951416</ele>
        <time>2010-06-30T15:32:43Z</time>
      </trkpt>
      <trkpt lat="48.69701" lon="7.32606">
        <ele>380.646729</ele>
        <time>2010-06-30T15:32:46Z</time>
      </trkpt>
      <trkpt lat="48.69714" lon="7.326">
        <ele>385.052979</ele>
        <time>2010-06-30T15:32:50Z</time>
      </trkpt>
      <trkpt lat="48.69729" lon="7.32596">
        <ele>385.592041</ele>
        <time>2010-06-30T15:32:56Z</time>
      </trkpt>
      <trkpt lat="48.69746" lon="7.32587">
        <ele>384.607666</ele>
        <time>2010-06-30T15:33:00Z</time>
      </trkpt>
      <trkpt lat="48.69759" lon="7.32577">
        <ele>385.060791</ele>
        <time>2010-06-30T15:33:04Z</time>
      </trkpt>
      <trkpt lat="48.69774" lon="7.32564">
        <ele>386.435791</ele>
        <time>2010-06-30T15:33:08Z</time>
      </trkpt>
      <trkpt lat="48.69787" lon="7.32545">
        <ele>388.435791</ele>
        <time>2010-06-30T15:33:12Z</time>
      </trkpt>
      <trkpt lat="48.69798" lon="7.32532">
        <ele>390.193604</ele>
        <time>2010-06-30T15:33:15Z</time>
      </trkpt>
      <trkpt lat="48.69809" lon="7.32513">
        <ele>391.959229</ele>
        <time>2010-06-30T15:33:19Z</time>
      </trkpt>
      <trkpt lat="48.69817" lon="7.32494">
        <ele>396.318604</ele>
        <time>2010-06-30T15:33:24Z</time>
      </trkpt>
      <trkpt lat="48.69827" lon="7.32478">
        <ele>398.842041</ele>
        <time>2010-06-30T15:33:31Z</time>
      </trkpt>
      <trkpt lat="48.69834" lon="7.32461">
        <ele>396.888916</ele>
        <time>2010-06-30T15:33:40Z</time>
      </trkpt>
      <trkpt lat="48.69848" lon="7.32446">
        <ele>390.506104</ele>
        <time>2010-06-30T15:33:44Z</time>
      </trkpt>
      <trkpt lat="48.69856" lon="7.32428">
        <ele>385.349854</ele>
        <time>2010-06-30T15:34:21Z</time>
      </trkpt>
      <trkpt lat="48.6986" lon="7.32407">
        <ele>383.771729</ele>
        <time>2010-06-30T15:34:26Z</time>
      </trkpt>
      <trkpt lat="48.69872" lon="7.32395">
        <ele>383.677979</ele>
        <time>2010-06-30T15:34:30Z</time>
      </trkpt>
      <trkpt lat="48.69882" lon="7.32379">
        <ele>383.693604</ele>
        <time>2010-06-30T15:34:36Z</time>
      </trkpt>
      <trkpt lat="48.69892" lon="7.32365">
        <ele>383.967041</ele>
        <time>2010-06-30T15:34:41Z</time>
      </trkpt>
      <trkpt lat="48.69906" lon="7.3235">
        <ele>382.295166</ele>
        <time>2010-06-30T15:34:46Z</time>
      </trkpt>
      <trkpt lat="48.6992" lon="7.32336">
        <ele>381.654541</ele>
        <time>2010-06-30T15:34:50Z</time>
      </trkpt>
      <trkpt lat="48.69933" lon="7.32323">
        <ele>381.521729</ele>
        <time>2010-06-30T15:34:54Z</time>
      </trkpt>
      <trkpt lat="48.69945" lon="7.32313">
        <ele>380.162354</ele>
        <time>2010-06-30T15:34:57Z</time>
      </trkpt>
      <trkpt lat="48.69958" lon="7.323">
        <ele>379.654541</ele>
        <time>2010-06-30T15:35:00Z</time>
      </trkpt>
      <trkpt lat="48.69972" lon="7.32284">
        <ele>380.396729</ele>
        <time>2010-06-30T15:35:03Z</time>
      </trkpt>
      <trkpt lat="48.69985" lon="7.32272">
        <ele>380.795166</ele>
        <time>2010-06-30T15:35:07Z</time>
      </trkpt>
      <trkpt lat="48.69997" lon="7.3227">
        <ele>373.349854</ele>
        <time>2010-06-30T15:39:23Z</time>
      </trkpt>
      <trkpt lat="48.70002" lon="7.32282">
        <ele>361.756104</ele>
        <time>2010-06-30T15:41:24Z</time>
      </trkpt>
      <trkpt lat="48.70009" lon="7.32288">
        <ele>349.638916</ele>
        <time>2010-06-30T15:46:41Z</time>
      </trkpt>
      <trkpt lat="48.69997" lon="7.32276">
        <ele>352.513916</ele>
        <time>2010-06-30T15:55:45Z</time>
      </trkpt>
      <trkpt lat="48.70002" lon="7.32255">
        <ele>352.748291</ele>
        <time>2010-06-30T15:55:59Z</time>
      </trkpt>
      <trkpt lat="48.70013" lon="7.3224">
        <ele>353.935791</ele>
        <time>2010-06-30T15:56:04Z</time>
      </trkpt>
      <trkpt lat="48.70023" lon="7.32226">
        <ele>355.756104</ele>
        <time>2010-06-30T15:56:09Z</time>
      </trkpt>
      <trkpt lat="48.70038" lon="7.32214">
        <ele>355.599854</ele>
        <time>2010-06-30T15:56:14Z</time>
      </trkpt>
      <trkpt lat="48.70048" lon="7.32198">
        <ele>355.162354</ele>
        <time>2010-06-30T15:56:22Z</time>
      </trkpt>
      <trkpt lat="48.70058" lon="7.32186">
        <ele>355.592041</ele>
        <time>2010-06-30T15:56:37Z</time>
      </trkpt>
      <trkpt lat="48.70071" lon="7.32174">
        <ele>354.654541</ele>
        <time>2010-06-30T15:56:43Z</time>
      </trkpt>
      <trkpt lat="48.70083" lon="7.32161">
        <ele>353.365479</ele>
        <time>2010-06-30T15:56:49Z</time>
      </trkpt>
      <trkpt lat="48.70096" lon="7.32144">
        <ele>354.193604</ele>
        <time>2010-06-30T15:56:53Z</time>
      </trkpt>
      <trkpt lat="48.70107" lon="7.3213">
        <ele>353.256104</ele>
        <time>2010-06-30T15:56:56Z</time>
      </trkpt>
      <trkpt lat="48.70118" lon="7.32115">
        <ele>351.279541</ele>
        <time>2010-06-30T15:57:00Z</time>
      </trkpt>
      <trkpt lat="48.70127" lon="7.32097">
        <ele>352.076416</ele>
        <time>2010-06-30T15:57:04Z</time>
      </trkpt>
      <trkpt lat="48.70139" lon="7.32084">
        <ele>349.607666</ele>
        <time>2010-06-30T15:57:10Z</time>
      </trkpt>
      <trkpt lat="48.70151" lon="7.32078">
        <ele>355.873291</ele>
        <time>2010-06-30T15:59:07Z</time>
      </trkpt>
      <trkpt lat="48.70162" lon="7.32063">
        <ele>355.193604</ele>
        <time>2010-06-30T15:59:26Z</time>
      </trkpt>
      <trkpt lat="48.70173" lon="7.32048">
        <ele>352.842041</ele>
        <time>2010-06-30T15:59:31Z</time>
      </trkpt>
      <trkpt lat="48.70186" lon="7.32025">
        <ele>351.295166</ele>
        <time>2010-06-30T15:59:37Z</time>
      </trkpt>
      <trkpt lat="48.7019" lon="7.32004">
        <ele>348.623291</ele>
        <time>2010-06-30T15:59:42Z</time>
      </trkpt>
      <trkpt lat="48.70194" lon="7.31983">
        <ele>349.545166</ele>
        <time>2010-06-30T15:59:49Z</time>
      </trkpt>
      <trkpt lat="48.70205" lon="7.3197">
        <ele>344.576416</ele>
        <time>2010-06-30T15:59:55Z</time>
      </trkpt>
      <trkpt lat="48.70214" lon="7.31956">
        <ele>341.427979</ele>
        <time>2010-06-30T16:00:04Z</time>
      </trkpt>
      <trkpt lat="48.70227" lon="7.31943">
        <ele>337.138916</ele>
        <time>2010-06-30T16:00:12Z</time>
      </trkpt>
      <trkpt lat="48.70236" lon="7.31928">
        <ele>336.092041</ele>
        <time>2010-06-30T16:00:20Z</time>
      </trkpt>
      <trkpt lat="48.70247" lon="7.31916">
        <ele>330.490479</ele>
        <time>2010-06-30T16:00:26Z</time>
      </trkpt>
      <trkpt lat="48.70257" lon="7.31901">
        <ele>326.451416</ele>
        <time>2010-06-30T16:00:33Z</time>
      </trkpt>
      <trkpt lat="48.70267" lon="7.31887">
        <ele>326.576416</ele>
        <time>2010-06-30T16:00:38Z</time>
      </trkpt>
      <trkpt lat="48.70277" lon="7.3187">
        <ele>327.638916</ele>
        <time>2010-06-30T16:00:45Z</time>
      </trkpt>
      <trkpt lat="48.70285" lon="7.31852">
        <ele>324.685791</ele>
        <time>2010-06-30T16:00:51Z</time>
      </trkpt>
      <trkpt lat="48.70295" lon="7.31843">
        <ele>317.599854</ele>
        <time>2010-06-30T16:00:56Z</time>
      </trkpt>
      <trkpt lat="48.70302" lon="7.31826">
        <ele>312.271729</ele>
        <time>2010-06-30T16:01:32Z</time>
      </trkpt>
      <trkpt lat="48.70308" lon="7.31806">
        <ele>312.506104</ele>
        <time>2010-06-30T16:01:47Z</time>
      </trkpt>
      <trkpt lat="48.70311" lon="7.31784">
        <ele>313.490479</ele>
        <time>2010-06-30T16:01:53Z</time>
      </trkpt>
      <trkpt lat="48.7032" lon="7.31767">
        <ele>314.256104</ele>
        <time>2010-06-30T16:02:01Z</time>
      </trkpt>
      <trkpt lat="48.70324" lon="7.31745">
        <ele>316.412354</ele>
        <time>2010-06-30T16:02:17Z</time>
      </trkpt>
      <trkpt lat="48.70338" lon="7.3174">
        <ele>315.920166</ele>
        <time>2010-06-30T16:02:29Z</time>
      </trkpt>
      <trkpt lat="48.70343" lon="7.31721">
        <ele>319.099854</ele>
        <time>2010-06-30T16:02:42Z</time>
      </trkpt>
      <trkpt lat="48.70347" lon="7.31698">
        <ele>320.295166</ele>
        <time>2010-06-30T16:02:47Z</time>
      </trkpt>
      <trkpt lat="48.70349" lon="7.31677">
        <ele>321.927979</ele>
        <time>2010-06-30T16:02:51Z</time>
      </trkpt>
      <trkpt lat="48.70354" lon="7.31654">
        <ele>320.404541</ele>
        <time>2010-06-30T16:02:57Z</time>
      </trkpt>
      <trkpt lat="48.70358" lon="7.3163">
        <ele>319.412354</ele>
        <time>2010-06-30T16:03:02Z</time>
      </trkpt>
      <trkpt lat="48.70362" lon="7.3161">
        <ele>315.217041</ele>
        <time>2010-06-30T16:03:05Z</time>
      </trkpt>
      <trkpt lat="48.70373" lon="7.316">
        <ele>308.677979</ele>
        <time>2010-06-30T16:03:07Z</time>
      </trkpt>
      <trkpt lat="48.70382" lon="7.31583">
        <ele>306.818604</ele>
        <time>2010-06-30T16:03:10Z</time>
      </trkpt>
      <trkpt lat="48.70389" lon="7.31562">
        <ele>305.037354</ele>
        <time>2010-06-30T16:03:14Z</time>
      </trkpt>
      <trkpt lat="48.70394" lon="7.3154">
        <ele>309.998291</ele>
        <time>2010-06-30T16:03:19Z</time>
      </trkpt>
      <trkpt lat="48.70404" lon="7.31523">
        <ele>308.287354</ele>
        <time>2010-06-30T16:03:25Z</time>
      </trkpt>
      <trkpt lat="48.70411" lon="7.31501">
        <ele>309.373291</ele>
        <time>2010-06-30T16:03:30Z</time>
      </trkpt>
      <trkpt lat="48.70417" lon="7.31481">
        <ele>309.193604</ele>
        <time>2010-06-30T16:03:35Z</time>
      </trkpt>
      <trkpt lat="48.70421" lon="7.31458">
        <ele>310.467041</ele>
        <time>2010-06-30T16:03:38Z</time>
      </trkpt>
      <trkpt lat="48.70424" lon="7.31433">
        <ele>310.287354</ele>
        <time>2010-06-30T16:03:42Z</time>
      </trkpt>
      <trkpt lat="48.70426" lon="7.31411">
        <ele>308.748291</ele>
        <time>2010-06-30T16:03:45Z</time>
      </trkpt>
      <trkpt lat="48.70426" lon="7.3139">
        <ele>310.810791</ele>
        <time>2010-06-30T16:03:49Z</time>
      </trkpt>
      <trkpt lat="48.70428" lon="7.31369">
        <ele>309.193604</ele>
        <time>2010-06-30T16:03:54Z</time>
      </trkpt>
      <trkpt lat="48.70429" lon="7.31347">
        <ele>306.052979</ele>
        <time>2010-06-30T16:03:58Z</time>
      </trkpt>
      <trkpt lat="48.70432" lon="7.31321">
        <ele>302.232666</ele>
        <time>2010-06-30T16:04:05Z</time>
      </trkpt>
      <trkpt lat="48.70436" lon="7.31301">
        <ele>299.076416</ele>
        <time>2010-06-30T16:04:09Z</time>
      </trkpt>
      <trkpt lat="48.70438" lon="7.31278">
        <ele>294.654541</ele>
        <time>2010-06-30T16:04:16Z</time>
      </trkpt>
      <trkpt lat="48.7044" lon="7.31258">
        <ele>289.599854</ele>
        <time>2010-06-30T16:04:22Z</time>
      </trkpt>
      <trkpt lat="48.70446" lon="7.3124">
        <ele>284.607666</ele>
        <time>2010-06-30T16:04:27Z</time>
      </trkpt>
      <trkpt lat="48.70452" lon="7.31218">
        <ele>284.787354</ele>
        <time>2010-06-30T16:04:34Z</time>
      </trkpt>
      <trkpt lat="48.70459" lon="7.31201">
        <ele>283.060791</ele>
        <time>2010-06-30T16:04:38Z</time>
      </trkpt>
      <trkpt lat="48.70467" lon="7.31184">
        <ele>280.279541</ele>
        <time>2010-06-30T16:04:42Z</time>
      </trkpt>
      <trkpt lat="48.70473" lon="7.31165">
        <ele>276.107666</ele>
        <time>2010-06-30T16:04:48Z</time>
      </trkpt>
      <trkpt lat="48.70487" lon="7.31155">
        <ele>276.873291</ele>
        <time>2010-06-30T16:04:53Z</time>
      </trkpt>
      <trkpt lat="48.70498" lon="7.31144">
        <ele>278.193604</ele>
        <time>2010-06-30T16:04:56Z</time>
      </trkpt>
      <trkpt lat="48.70506" lon="7.31128">
        <ele>281.021729</ele>
        <time>2010-06-30T16:04:59Z</time>
      </trkpt>
      <trkpt lat="48.70514" lon="7.31113">
        <ele>288.420166</ele>
        <time>2010-06-30T16:05:11Z</time>
      </trkpt>
      <trkpt lat="48.70526" lon="7.31101">
        <ele>289.568604</ele>
        <time>2010-06-30T16:05:16Z</time>
      </trkpt>
      <trkpt lat="48.70541" lon="7.31099">
        <ele>292.115479</ele>
        <time>2010-06-30T16:05:21Z</time>
      </trkpt>
      <trkpt lat="48.70557" lon="7.31097">
        <ele>298.693604</ele>
        <time>2010-06-30T16:05:27Z</time>
      </trkpt>
      <trkpt lat="48.7057" lon="7.31093">
        <ele>303.006104</ele>
        <time>2010-06-30T16:05:32Z</time>
      </trkpt>
      <trkpt lat="48.70586" lon="7.3109">
        <ele>304.740479</ele>
        <time>2010-06-30T16:05:37Z</time>
      </trkpt>
      <trkpt lat="48.70601" lon="7.31082">
        <ele>305.732666</ele>
        <time>2010-06-30T16:05:41Z</time>
      </trkpt>
      <trkpt lat="48.70614" lon="7.31077">
        <ele>307.162354</ele>
        <time>2010-06-30T16:05:44Z</time>
      </trkpt>
      <trkpt lat="48.70628" lon="7.31066">
        <ele>305.881104</ele>
        <time>2010-06-30T16:05:46Z</time>
      </trkpt>
      <trkpt lat="48.70642" lon="7.31049">
        <ele>305.756104</ele>
        <time>2010-06-30T16:05:49Z</time>
      </trkpt>
      <trkpt lat="48.70659" lon="7.31033">
        <ele>307.498291</ele>
        <time>2010-06-30T16:05:52Z</time>
      </trkpt>
      <trkpt lat="48.70671" lon="7.31014">
        <ele>306.170166</ele>
        <time>2010-06-30T16:05:54Z</time>
      </trkpt>
      <trkpt lat="48.70683" lon="7.30998">
        <ele>307.006104</ele>
        <time>2010-06-30T16:05:56Z</time>
      </trkpt>
      <trkpt lat="48.70697" lon="7.30989">
        <ele>307.529541</ele>
        <time>2010-06-30T16:05:58Z</time>
      </trkpt>
      <trkpt lat="48.70713" lon="7.30981">
        <ele>307.927979</ele>
        <time>2010-06-30T16:06:00Z</time>
      </trkpt>
      <trkpt lat="48.7073" lon="7.30974">
        <ele>307.959229</ele>
        <time>2010-06-30T16:06:02Z</time>
      </trkpt>
      <trkpt lat="48.70746" lon="7.30965">
        <ele>308.459229</ele>
        <time>2010-06-30T16:06:04Z</time>
      </trkpt>
      <trkpt lat="48.70761" lon="7.30959">
        <ele>309.092041</ele>
        <time>2010-06-30T16:06:06Z</time>
      </trkpt>
      <trkpt lat="48.70775" lon="7.30952">
        <ele>310.099854</ele>
        <time>2010-06-30T16:06:08Z</time>
      </trkpt>
      <trkpt lat="48.70789" lon="7.30947">
        <ele>311.123291</ele>
        <time>2010-06-30T16:06:10Z</time>
      </trkpt>
      <trkpt lat="48.70802" lon="7.30939">
        <ele>310.982666</ele>
        <time>2010-06-30T16:06:12Z</time>
      </trkpt>
      <trkpt lat="48.70818" lon="7.30929">
        <ele>309.459229</ele>
        <time>2010-06-30T16:06:14Z</time>
      </trkpt>
      <trkpt lat="48.70831" lon="7.30927">
        <ele>308.107666</ele>
        <time>2010-06-30T16:06:15Z</time>
      </trkpt>
      <trkpt lat="48.70847" lon="7.30919">
        <ele>305.420166</ele>
        <time>2010-06-30T16:06:17Z</time>
      </trkpt>
      <trkpt lat="48.70861" lon="7.30913">
        <ele>304.810791</ele>
        <time>2010-06-30T16:06:19Z</time>
      </trkpt>
      <trkpt lat="48.70878" lon="7.30907">
        <ele>304.138916</ele>
        <time>2010-06-30T16:06:22Z</time>
      </trkpt>
      <trkpt lat="48.70892" lon="7.30906">
        <ele>301.717041</ele>
        <time>2010-06-30T16:06:24Z</time>
      </trkpt>
      <trkpt lat="48.70911" lon="7.30901">
        <ele>294.263916</ele>
        <time>2010-06-30T16:06:26Z</time>
      </trkpt>
      <trkpt lat="48.70927" lon="7.30894">
        <ele>286.576416</ele>
        <time>2010-06-30T16:06:28Z</time>
      </trkpt>
      <trkpt lat="48.7094" lon="7.30889">
        <ele>284.943604</ele>
        <time>2010-06-30T16:06:31Z</time>
      </trkpt>
      <trkpt lat="48.70955" lon="7.30875">
        <ele>284.271729</ele>
        <time>2010-06-30T16:06:34Z</time>
      </trkpt>
      <trkpt lat="48.70972" lon="7.30868">
        <ele>270.771729</ele>
        <time>2010-06-30T16:06:38Z</time>
      </trkpt>
      <trkpt lat="48.70987" lon="7.30862">
        <ele>265.795166</ele>
        <time>2010-06-30T16:06:41Z</time>
      </trkpt>
      <trkpt lat="48.71005" lon="7.30856">
        <ele>261.748291</ele>
        <time>2010-06-30T16:06:45Z</time>
      </trkpt>
      <trkpt lat="48.71023" lon="7.30846">
        <ele>257.060791</ele>
        <time>2010-06-30T16:06:48Z</time>
      </trkpt>
      <trkpt lat="48.71039" lon="7.30839">
        <ele>253.186646</ele>
        <time>2010-06-30T16:06:51Z</time>
      </trkpt>
      <trkpt lat="48.71053" lon="7.30837">
        <ele>250.006958</ele>
        <time>2010-06-30T16:06:53Z</time>
      </trkpt>
      <trkpt lat="48.71069" lon="7.30836">
        <ele>245.917114</ele>
        <time>2010-06-30T16:06:56Z</time>
      </trkpt>
      <trkpt lat="48.71086" lon="7.30844">
        <ele>249.682739</ele>
        <time>2010-06-30T16:06:59Z</time>
      </trkpt>
      <trkpt lat="48.71104" lon="7.30852">
        <ele>248.471802</ele>
        <time>2010-06-30T16:07:02Z</time>
      </trkpt>
      <trkpt lat="48.71121" lon="7.3086">
        <ele>253.440552</ele>
        <time>2010-06-30T16:07:05Z</time>
      </trkpt>
      <trkpt lat="48.71138" lon="7.30868">
        <ele>255.112427</ele>
        <time>2010-06-30T16:07:08Z</time>
      </trkpt>
      <trkpt lat="48.71155" lon="7.30877">
        <ele>258.927979</ele>
        <time>2010-06-30T16:07:11Z</time>
      </trkpt>
      <trkpt lat="48.71172" lon="7.30883">
        <ele>265.349854</ele>
        <time>2010-06-30T16:07:14Z</time>
      </trkpt>
      <trkpt lat="48.7119" lon="7.30888">
        <ele>270.060791</ele>
        <time>2010-06-30T16:07:17Z</time>
      </trkpt>
      <trkpt lat="48.71207" lon="7.30896">
        <ele>272.279541</ele>
        <time>2010-06-30T16:07:20Z</time>
      </trkpt>
      <trkpt lat="48.71225" lon="7.30909">
        <ele>273.443604</ele>
        <time>2010-06-30T16:07:23Z</time>
      </trkpt>
      <trkpt lat="48.71238" lon="7.30919">
        <ele>272.365479</ele>
        <time>2010-06-30T16:07:25Z</time>
      </trkpt>
      <trkpt lat="48.71252" lon="7.30935">
        <ele>271.959229</ele>
        <time>2010-06-30T16:07:27Z</time>
      </trkpt>
      <trkpt lat="48.71266" lon="7.30951">
        <ele>272.959229</ele>
        <time>2010-06-30T16:07:29Z</time>
      </trkpt>
      <trkpt lat="48.71278" lon="7.30965">
        <ele>274.029541</ele>
        <time>2010-06-30T16:07:31Z</time>
      </trkpt>
      <trkpt lat="48.71291" lon="7.30976">
        <ele>271.974854</ele>
        <time>2010-06-30T16:07:33Z</time>
      </trkpt>
      <trkpt lat="48.71305" lon="7.30988">
        <ele>272.771729</ele>
        <time>2010-06-30T16:07:35Z</time>
      </trkpt>
      <trkpt lat="48.71318" lon="7.31007">
        <ele>274.013916</ele>
        <time>2010-06-30T16:07:37Z</time>
      </trkpt>
      <trkpt lat="48.71328" lon="7.31029">
        <ele>273.185791</ele>
        <time>2010-06-30T16:07:39Z</time>
      </trkpt>
      <trkpt lat="48.71336" lon="7.31047">
        <ele>273.693604</ele>
        <time>2010-06-30T16:07:41Z</time>
      </trkpt>
      <trkpt lat="48.71348" lon="7.31064">
        <ele>272.740479</ele>
        <time>2010-06-30T16:07:43Z</time>
      </trkpt>
      <trkpt lat="48.71361" lon="7.31081">
        <ele>270.545166</ele>
        <time>2010-06-30T16:07:45Z</time>
      </trkpt>
      <trkpt lat="48.71371" lon="7.31098">
        <ele>269.185791</ele>
        <time>2010-06-30T16:07:47Z</time>
      </trkpt>
      <trkpt lat="48.71381" lon="7.31113">
        <ele>269.709229</ele>
        <time>2010-06-30T16:07:49Z</time>
      </trkpt>
      <trkpt lat="48.71395" lon="7.31132">
        <ele>269.912354</ele>
        <time>2010-06-30T16:07:52Z</time>
      </trkpt>
      <trkpt lat="48.71409" lon="7.31146">
        <ele>270.474854</ele>
        <time>2010-06-30T16:07:55Z</time>
      </trkpt>
      <trkpt lat="48.71426" lon="7.31151">
        <ele>271.396729</ele>
        <time>2010-06-30T16:07:58Z</time>
      </trkpt>
      <trkpt lat="48.71444" lon="7.31158">
        <ele>272.967041</ele>
        <time>2010-06-30T16:08:01Z</time>
      </trkpt>
      <trkpt lat="48.7146" lon="7.31156">
        <ele>269.834229</ele>
        <time>2010-06-30T16:08:04Z</time>
      </trkpt>
      <trkpt lat="48.71479" lon="7.31167">
        <ele>269.959229</ele>
        <time>2010-06-30T16:08:07Z</time>
      </trkpt>
      <trkpt lat="48.71491" lon="7.31177">
        <ele>269.021729</ele>
        <time>2010-06-30T16:08:09Z</time>
      </trkpt>
      <trkpt lat="48.71503" lon="7.31189">
        <ele>270.365479</ele>
        <time>2010-06-30T16:08:11Z</time>
      </trkpt>
      <trkpt lat="48.71513" lon="7.31203">
        <ele>270.638916</ele>
        <time>2010-06-30T16:08:13Z</time>
      </trkpt>
      <trkpt lat="48.71529" lon="7.31221">
        <ele>265.615479</ele>
        <time>2010-06-30T16:08:16Z</time>
      </trkpt>
      <trkpt lat="48.71539" lon="7.31234">
        <ele>263.396729</ele>
        <time>2010-06-30T16:08:18Z</time>
      </trkpt>
      <trkpt lat="48.71553" lon="7.31252">
        <ele>263.474854</ele>
        <time>2010-06-30T16:08:21Z</time>
      </trkpt>
      <trkpt lat="48.71568" lon="7.3127">
        <ele>263.818604</ele>
        <time>2010-06-30T16:08:24Z</time>
      </trkpt>
      <trkpt lat="48.71581" lon="7.31282">
        <ele>263.677979</ele>
        <time>2010-06-30T16:08:26Z</time>
      </trkpt>
      <trkpt lat="48.71592" lon="7.31302">
        <ele>260.802979</ele>
        <time>2010-06-30T16:08:28Z</time>
      </trkpt>
      <trkpt lat="48.71602" lon="7.31318">
        <ele>259.771729</ele>
        <time>2010-06-30T16:08:30Z</time>
      </trkpt>
      <trkpt lat="48.71615" lon="7.31331">
        <ele>256.099854</ele>
        <time>2010-06-30T16:08:32Z</time>
      </trkpt>
      <trkpt lat="48.71624" lon="7.3135">
        <ele>254.049927</ele>
        <time>2010-06-30T16:08:34Z</time>
      </trkpt>
      <trkpt lat="48.71634" lon="7.31364">
        <ele>254.713989</ele>
        <time>2010-06-30T16:08:36Z</time>
      </trkpt>
      <trkpt lat="48.71643" lon="7.31381">
        <ele>255.034302</ele>
        <time>2010-06-30T16:08:38Z</time>
      </trkpt>
      <trkpt lat="48.71651" lon="7.31397">
        <ele>254.737427</ele>
        <time>2010-06-30T16:08:40Z</time>
      </trkpt>
      <trkpt lat="48.7166" lon="7.31413">
        <ele>253.452271</ele>
        <time>2010-06-30T16:08:42Z</time>
      </trkpt>
      <trkpt lat="48.71671" lon="7.31428">
        <ele>251.151489</ele>
        <time>2010-06-30T16:08:44Z</time>
      </trkpt>
      <trkpt lat="48.7168" lon="7.31444">
        <ele>249.944458</ele>
        <time>2010-06-30T16:08:46Z</time>
      </trkpt>
      <trkpt lat="48.71695" lon="7.31462">
        <ele>248.323364</ele>
        <time>2010-06-30T16:08:49Z</time>
      </trkpt>
      <trkpt lat="48.71708" lon="7.31471">
        <ele>247.647583</ele>
        <time>2010-06-30T16:08:51Z</time>
      </trkpt>
      <trkpt lat="48.71722" lon="7.3148">
        <ele>245.206177</ele>
        <time>2010-06-30T16:08:53Z</time>
      </trkpt>
      <trkpt lat="48.71736" lon="7.31486">
        <ele>243.913208</ele>
        <time>2010-06-30T16:08:55Z</time>
      </trkpt>
      <trkpt lat="48.71752" lon="7.31489">
        <ele>241.413208</ele>
        <time>2010-06-30T16:08:57Z</time>
      </trkpt>
      <trkpt lat="48.71768" lon="7.3149">
        <ele>240.276489</ele>
        <time>2010-06-30T16:08:59Z</time>
      </trkpt>
      <trkpt lat="48.71783" lon="7.31487">
        <ele>237.296021</ele>
        <time>2010-06-30T16:09:01Z</time>
      </trkpt>
      <trkpt lat="48.71797" lon="7.31483">
        <ele>236.842896</ele>
        <time>2010-06-30T16:09:03Z</time>
      </trkpt>
      <trkpt lat="48.71814" lon="7.31478">
        <ele>232.108521</ele>
        <time>2010-06-30T16:09:05Z</time>
      </trkpt>
      <trkpt lat="48.71829" lon="7.31471">
        <ele>228.628052</ele>
        <time>2010-06-30T16:09:07Z</time>
      </trkpt>
      <trkpt lat="48.71843" lon="7.31467">
        <ele>227.581177</ele>
        <time>2010-06-30T16:09:09Z</time>
      </trkpt>
      <trkpt lat="48.7186" lon="7.31451">
        <ele>226.756958</ele>
        <time>2010-06-30T16:09:12Z</time>
      </trkpt>
      <trkpt lat="48.71874" lon="7.31444">
        <ele>222.514771</ele>
        <time>2010-06-30T16:09:15Z</time>
      </trkpt>
      <trkpt lat="48.71889" lon="7.3143">
        <ele>219.428833</ele>
        <time>2010-06-30T16:09:18Z</time>
      </trkpt>
      <trkpt lat="48.71899" lon="7.31417">
        <ele>216.182739</ele>
        <time>2010-06-30T16:09:20Z</time>
      </trkpt>
      <trkpt lat="48.71913" lon="7.31399">
        <ele>213.905396</ele>
        <time>2010-06-30T16:09:23Z</time>
      </trkpt>
      <trkpt lat="48.71927" lon="7.31383">
        <ele>210.717896</ele>
        <time>2010-06-30T16:09:26Z</time>
      </trkpt>
      <trkpt lat="48.7194" lon="7.31369">
        <ele>208.104614</ele>
        <time>2010-06-30T16:09:30Z</time>
      </trkpt>
      <trkpt lat="48.71956" lon="7.31372">
        <ele>206.725708</ele>
        <time>2010-06-30T16:09:34Z</time>
      </trkpt>
      <trkpt lat="48.7197" lon="7.31381">
        <ele>206.698364</ele>
        <time>2010-06-30T16:09:37Z</time>
      </trkpt>
      <trkpt lat="48.71982" lon="7.31392">
        <ele>205.139771</ele>
        <time>2010-06-30T16:09:40Z</time>
      </trkpt>
      <trkpt lat="48.71993" lon="7.31407">
        <ele>204.487427</ele>
        <time>2010-06-30T16:09:44Z</time>
      </trkpt>
      <trkpt lat="48.72001" lon="7.31424">
        <ele>203.932739</ele>
        <time>2010-06-30T16:09:51Z</time>
      </trkpt>
      <trkpt lat="48.72014" lon="7.31434">
        <ele>200.163208</ele>
        <time>2010-06-30T16:10:14Z</time>
      </trkpt>
      <trkpt lat="48.72026" lon="7.31446">
        <ele>198.983521</ele>
        <time>2010-06-30T16:10:20Z</time>
      </trkpt>
      <trkpt lat="48.72038" lon="7.31457">
        <ele>197.460083</ele>
        <time>2010-06-30T16:10:29Z</time>
      </trkpt>
      <trkpt lat="48.72049" lon="7.31471">
        <ele>195.686646</ele>
        <time>2010-06-30T16:10:35Z</time>
      </trkpt>
      <trkpt lat="48.72059" lon="7.31489">
        <ele>196.413208</ele>
        <time>2010-06-30T16:10:45Z</time>
      </trkpt>
      <trkpt lat="48.72072" lon="7.31497">
        <ele>196.131958</ele>
        <time>2010-06-30T16:10:53Z</time>
      </trkpt>
      <trkpt lat="48.72085" lon="7.31495">
        <ele>194.034302</ele>
        <time>2010-06-30T16:10:59Z</time>
      </trkpt>
      <trkpt lat="48.72098" lon="7.31486">
        <ele>193.510864</ele>
        <time>2010-06-30T16:11:03Z</time>
      </trkpt>
      <trkpt lat="48.72111" lon="7.31491">
        <ele>195.952271</ele>
        <time>2010-06-30T16:11:09Z</time>
      </trkpt>
      <trkpt lat="48.72121" lon="7.31509">
        <ele>197.780396</ele>
        <time>2010-06-30T16:11:15Z</time>
      </trkpt>
      <trkpt lat="48.72127" lon="7.31531">
        <ele>200.397583</ele>
        <time>2010-06-30T16:11:20Z</time>
      </trkpt>
      <trkpt lat="48.72134" lon="7.31551">
        <ele>201.612427</ele>
        <time>2010-06-30T16:11:25Z</time>
      </trkpt>
      <trkpt lat="48.72146" lon="7.31563">
        <ele>203.049927</ele>
        <time>2010-06-30T16:11:32Z</time>
      </trkpt>
      <trkpt lat="48.7215" lon="7.31586">
        <ele>203.354614</ele>
        <time>2010-06-30T16:11:38Z</time>
      </trkpt>
      <trkpt lat="48.72155" lon="7.31608">
        <ele>204.366333</ele>
        <time>2010-06-30T16:11:42Z</time>
      </trkpt>
      <trkpt lat="48.7216" lon="7.31635">
        <ele>204.049927</ele>
        <time>2010-06-30T16:11:46Z</time>
      </trkpt>
      <trkpt lat="48.72164" lon="7.31664">
        <ele>202.776489</ele>
        <time>2010-06-30T16:11:49Z</time>
      </trkpt>
      <trkpt lat="48.72168" lon="7.31684">
        <ele>202.639771</ele>
        <time>2010-06-30T16:11:51Z</time>
      </trkpt>
      <trkpt lat="48.7217" lon="7.31705">
        <ele>202.424927</ele>
        <time>2010-06-30T16:11:53Z</time>
      </trkpt>
      <trkpt lat="48.72174" lon="7.31733">
        <ele>202.018677</ele>
        <time>2010-06-30T16:11:56Z</time>
      </trkpt>
      <trkpt lat="48.72176" lon="7.31762">
        <ele>202.264771</ele>
        <time>2010-06-30T16:11:59Z</time>
      </trkpt>
      <trkpt lat="48.72177" lon="7.31783">
        <ele>202.245239</ele>
        <time>2010-06-30T16:12:01Z</time>
      </trkpt>
      <trkpt lat="48.72179" lon="7.31804">
        <ele>202.276489</ele>
        <time>2010-06-30T16:12:03Z</time>
      </trkpt>
      <trkpt lat="48.72182" lon="7.31833">
        <ele>202.588989</ele>
        <time>2010-06-30T16:12:06Z</time>
      </trkpt>
      <trkpt lat="48.72186" lon="7.31862">
        <ele>202.389771</ele>
        <time>2010-06-30T16:12:09Z</time>
      </trkpt>
      <trkpt lat="48.72189" lon="7.31891">
        <ele>202.495239</ele>
        <time>2010-06-30T16:12:12Z</time>
      </trkpt>
      <trkpt lat="48.72192" lon="7.31919">
        <ele>202.081177</ele>
        <time>2010-06-30T16:12:15Z</time>
      </trkpt>
      <trkpt lat="48.72199" lon="7.31945">
        <ele>201.756958</ele>
        <time>2010-06-30T16:12:18Z</time>
      </trkpt>
      <trkpt lat="48.72207" lon="7.31972">
        <ele>202.022583</ele>
        <time>2010-06-30T16:12:21Z</time>
      </trkpt>
      <trkpt lat="48.72215" lon="7.31997">
        <ele>202.147583</ele>
        <time>2010-06-30T16:12:24Z</time>
      </trkpt>
      <trkpt lat="48.72225" lon="7.32022">
        <ele>201.846802</ele>
        <time>2010-06-30T16:12:27Z</time>
      </trkpt>
      <trkpt lat="48.72236" lon="7.32046">
        <ele>201.581177</ele>
        <time>2010-06-30T16:12:30Z</time>
      </trkpt>
      <trkpt lat="48.72247" lon="7.3207">
        <ele>201.569458</ele>
        <time>2010-06-30T16:12:33Z</time>
      </trkpt>
      <trkpt lat="48.72259" lon="7.32092">
        <ele>201.053833</ele>
        <time>2010-06-30T16:12:36Z</time>
      </trkpt>
      <trkpt lat="48.72272" lon="7.32114">
        <ele>200.921021</ele>
        <time>2010-06-30T16:12:39Z</time>
      </trkpt>
      <trkpt lat="48.72284" lon="7.32135">
        <ele>200.756958</ele>
        <time>2010-06-30T16:12:42Z</time>
      </trkpt>
      <trkpt lat="48.72297" lon="7.32155">
        <ele>200.694458</ele>
        <time>2010-06-30T16:12:45Z</time>
      </trkpt>
      <trkpt lat="48.7231" lon="7.32175">
        <ele>200.471802</ele>
        <time>2010-06-30T16:12:48Z</time>
      </trkpt>
      <trkpt lat="48.72323" lon="7.32194">
        <ele>200.577271</ele>
        <time>2010-06-30T16:12:51Z</time>
      </trkpt>
      <trkpt lat="48.72337" lon="7.32214">
        <ele>200.202271</ele>
        <time>2010-06-30T16:12:54Z</time>
      </trkpt>
      <trkpt lat="48.72351" lon="7.32233">
        <ele>200.112427</ele>
        <time>2010-06-30T16:12:57Z</time>
      </trkpt>
      <trkpt lat="48.72364" lon="7.32252">
        <ele>200.057739</ele>
        <time>2010-06-30T16:13:00Z</time>
      </trkpt>
      <trkpt lat="48.72376" lon="7.32269">
        <ele>199.983521</ele>
        <time>2010-06-30T16:13:03Z</time>
      </trkpt>
      <trkpt lat="48.72389" lon="7.32286">
        <ele>199.424927</ele>
        <time>2010-06-30T16:13:06Z</time>
      </trkpt>
      <trkpt lat="48.72402" lon="7.32303">
        <ele>198.862427</ele>
        <time>2010-06-30T16:13:09Z</time>
      </trkpt>
      <trkpt lat="48.72417" lon="7.32316">
        <ele>198.370239</ele>
        <time>2010-06-30T16:13:12Z</time>
      </trkpt>
      <trkpt lat="48.72432" lon="7.32332">
        <ele>197.549927</ele>
        <time>2010-06-30T16:13:15Z</time>
      </trkpt>
      <trkpt lat="48.7244" lon="7.32354">
        <ele>197.171021</ele>
        <time>2010-06-30T16:13:18Z</time>
      </trkpt>
      <trkpt lat="48.72453" lon="7.32376">
        <ele>195.178833</ele>
        <time>2010-06-30T16:13:21Z</time>
      </trkpt>
      <trkpt lat="48.72465" lon="7.32391">
        <ele>194.616333</ele>
        <time>2010-06-30T16:13:23Z</time>
      </trkpt>
      <trkpt lat="48.72476" lon="7.32406">
        <ele>194.667114</ele>
        <time>2010-06-30T16:13:25Z</time>
      </trkpt>
      <trkpt lat="48.72487" lon="7.32421">
        <ele>194.667114</ele>
        <time>2010-06-30T16:13:27Z</time>
      </trkpt>
      <trkpt lat="48.72498" lon="7.32434">
        <ele>194.010864</ele>
        <time>2010-06-30T16:13:29Z</time>
      </trkpt>
      <trkpt lat="48.72508" lon="7.32449">
        <ele>193.651489</ele>
        <time>2010-06-30T16:13:31Z</time>
      </trkpt>
      <trkpt lat="48.72519" lon="7.32463">
        <ele>193.460083</ele>
        <time>2010-06-30T16:13:33Z</time>
      </trkpt>
      <trkpt lat="48.72529" lon="7.32478">
        <ele>193.073364</ele>
        <time>2010-06-30T16:13:35Z</time>
      </trkpt>
      <trkpt lat="48.7254" lon="7.32492">
        <ele>192.995239</ele>
        <time>2010-06-30T16:13:37Z</time>
      </trkpt>
      <trkpt lat="48.7255" lon="7.32506">
        <ele>192.674927</ele>
        <time>2010-06-30T16:13:39Z</time>
      </trkpt>
      <trkpt lat="48.7256" lon="7.3252">
        <ele>192.713989</ele>
        <time>2010-06-30T16:13:41Z</time>
      </trkpt>
      <trkpt lat="48.72571" lon="7.32534">
        <ele>192.538208</ele>
        <time>2010-06-30T16:13:43Z</time>
      </trkpt>
      <trkpt lat="48.72581" lon="7.32547">
        <ele>192.546021</ele>
        <time>2010-06-30T16:13:45Z</time>
      </trkpt>
      <trkpt lat="48.72591" lon="7.32563">
        <ele>192.522583</ele>
        <time>2010-06-30T16:13:47Z</time>
      </trkpt>
      <trkpt lat="48.72606" lon="7.32585">
        <ele>192.612427</ele>
        <time>2010-06-30T16:13:50Z</time>
      </trkpt>
      <trkpt lat="48.72615" lon="7.326">
        <ele>192.608521</ele>
        <time>2010-06-30T16:13:52Z</time>
      </trkpt>
      <trkpt lat="48.72623" lon="7.32629">
        <ele>192.514771</ele>
        <time>2010-06-30T16:13:55Z</time>
      </trkpt>
      <trkpt lat="48.72627" lon="7.32651">
        <ele>191.956177</ele>
        <time>2010-06-30T16:13:57Z</time>
      </trkpt>
      <trkpt lat="48.72632" lon="7.32672">
        <ele>191.733521</ele>
        <time>2010-06-30T16:13:59Z</time>
      </trkpt>
      <trkpt lat="48.72636" lon="7.32693">
        <ele>191.049927</ele>
        <time>2010-06-30T16:14:01Z</time>
      </trkpt>
      <trkpt lat="48.7264" lon="7.32713">
        <ele>190.995239</ele>
        <time>2010-06-30T16:14:03Z</time>
      </trkpt>
      <trkpt lat="48.72645" lon="7.32743">
        <ele>191.042114</ele>
        <time>2010-06-30T16:14:06Z</time>
      </trkpt>
      <trkpt lat="48.72649" lon="7.32772">
        <ele>190.518677</ele>
        <time>2010-06-30T16:14:09Z</time>
      </trkpt>
      <trkpt lat="48.72651" lon="7.32801">
        <ele>191.128052</ele>
        <time>2010-06-30T16:14:12Z</time>
      </trkpt>
      <trkpt lat="48.72649" lon="7.32831">
        <ele>195.026489</ele>
        <time>2010-06-30T16:14:15Z</time>
      </trkpt>
      <trkpt lat="48.7265" lon="7.32861">
        <ele>197.323364</ele>
        <time>2010-06-30T16:14:18Z</time>
      </trkpt>
      <trkpt lat="48.72651" lon="7.32881">
        <ele>198.241333</ele>
        <time>2010-06-30T16:14:20Z</time>
      </trkpt>
      <trkpt lat="48.72655" lon="7.3291">
        <ele>198.725708</ele>
        <time>2010-06-30T16:14:23Z</time>
      </trkpt>
      <trkpt lat="48.72662" lon="7.32939">
        <ele>198.671021</ele>
        <time>2010-06-30T16:14:26Z</time>
      </trkpt>
      <trkpt lat="48.72667" lon="7.32958">
        <ele>198.241333</ele>
        <time>2010-06-30T16:14:28Z</time>
      </trkpt>
      <trkpt lat="48.72675" lon="7.32986">
        <ele>197.921021</ele>
        <time>2010-06-30T16:14:31Z</time>
      </trkpt>
      <trkpt lat="48.72683" lon="7.33012">
        <ele>197.768677</ele>
        <time>2010-06-30T16:14:34Z</time>
      </trkpt>
      <trkpt lat="48.72693" lon="7.33039">
        <ele>197.956177</ele>
        <time>2010-06-30T16:14:37Z</time>
      </trkpt>
      <trkpt lat="48.72703" lon="7.33065">
        <ele>198.182739</ele>
        <time>2010-06-30T16:14:40Z</time>
      </trkpt>
      <trkpt lat="48.72715" lon="7.3309">
        <ele>198.436646</ele>
        <time>2010-06-30T16:14:43Z</time>
      </trkpt>
      <trkpt lat="48.72723" lon="7.33105">
        <ele>198.432739</ele>
        <time>2010-06-30T16:14:45Z</time>
      </trkpt>
      <trkpt lat="48.72738" lon="7.33126">
        <ele>198.155396</ele>
        <time>2010-06-30T16:14:48Z</time>
      </trkpt>
      <trkpt lat="48.72747" lon="7.3314">
        <ele>197.866333</ele>
        <time>2010-06-30T16:14:50Z</time>
      </trkpt>
      <trkpt lat="48.72758" lon="7.33153">
        <ele>197.788208</ele>
        <time>2010-06-30T16:14:52Z</time>
      </trkpt>
      <trkpt lat="48.7277" lon="7.33165">
        <ele>197.221802</ele>
        <time>2010-06-30T16:14:54Z</time>
      </trkpt>
      <trkpt lat="48.72781" lon="7.33176">
        <ele>196.971802</ele>
        <time>2010-06-30T16:14:56Z</time>
      </trkpt>
      <trkpt lat="48.72794" lon="7.33187">
        <ele>196.647583</ele>
        <time>2010-06-30T16:14:58Z</time>
      </trkpt>
      <trkpt lat="48.72806" lon="7.33197">
        <ele>196.378052</ele>
        <time>2010-06-30T16:15:00Z</time>
      </trkpt>
      <trkpt lat="48.72819" lon="7.33207">
        <ele>195.944458</ele>
        <time>2010-06-30T16:15:02Z</time>
      </trkpt>
      <trkpt lat="48.72832" lon="7.33216">
        <ele>195.487427</ele>
        <time>2010-06-30T16:15:04Z</time>
      </trkpt>
      <trkpt lat="48.72846" lon="7.33225">
        <ele>195.042114</ele>
        <time>2010-06-30T16:15:06Z</time>
      </trkpt>
      <trkpt lat="48.7286" lon="7.33232">
        <ele>194.514771</ele>
        <time>2010-06-30T16:15:08Z</time>
      </trkpt>
      <trkpt lat="48.72874" lon="7.33237">
        <ele>194.315552</ele>
        <time>2010-06-30T16:15:10Z</time>
      </trkpt>
      <trkpt lat="48.72888" lon="7.33241">
        <ele>193.909302</ele>
        <time>2010-06-30T16:15:12Z</time>
      </trkpt>
      <trkpt lat="48.72902" lon="7.33244">
        <ele>193.452271</ele>
        <time>2010-06-30T16:15:14Z</time>
      </trkpt>
      <trkpt lat="48.72916" lon="7.33246">
        <ele>193.288208</ele>
        <time>2010-06-30T16:15:16Z</time>
      </trkpt>
      <trkpt lat="48.72936" lon="7.33251">
        <ele>193.827271</ele>
        <time>2010-06-30T16:15:19Z</time>
      </trkpt>
      <trkpt lat="48.72955" lon="7.33257">
        <ele>194.745239</ele>
        <time>2010-06-30T16:15:22Z</time>
      </trkpt>
      <trkpt lat="48.72974" lon="7.33264">
        <ele>193.530396</ele>
        <time>2010-06-30T16:15:25Z</time>
      </trkpt>
      <trkpt lat="48.72992" lon="7.33274">
        <ele>192.292114</ele>
        <time>2010-06-30T16:15:28Z</time>
      </trkpt>
      <trkpt lat="48.73009" lon="7.33285">
        <ele>192.006958</ele>
        <time>2010-06-30T16:15:31Z</time>
      </trkpt>
      <trkpt lat="48.73024" lon="7.333">
        <ele>190.780396</ele>
        <time>2010-06-30T16:15:34Z</time>
      </trkpt>
      <trkpt lat="48.73039" lon="7.3332">
        <ele>191.104614</ele>
        <time>2010-06-30T16:15:37Z</time>
      </trkpt>
      <trkpt lat="48.73051" lon="7.33342">
        <ele>191.116333</ele>
        <time>2010-06-30T16:15:40Z</time>
      </trkpt>
      <trkpt lat="48.73061" lon="7.33365">
        <ele>191.796021</ele>
        <time>2010-06-30T16:15:43Z</time>
      </trkpt>
      <trkpt lat="48.73068" lon="7.33391">
        <ele>192.061646</ele>
        <time>2010-06-30T16:15:46Z</time>
      </trkpt>
      <trkpt lat="48.73073" lon="7.33416">
        <ele>192.346802</ele>
        <time>2010-06-30T16:15:49Z</time>
      </trkpt>
      <trkpt lat="48.73077" lon="7.33439">
        <ele>192.678833</ele>
        <time>2010-06-30T16:15:52Z</time>
      </trkpt>
      <trkpt lat="48.73084" lon="7.3346">
        <ele>193.417114</ele>
        <time>2010-06-30T16:15:55Z</time>
      </trkpt>
      <trkpt lat="48.73092" lon="7.3348">
        <ele>193.901489</ele>
        <time>2010-06-30T16:15:58Z</time>
      </trkpt>
      <trkpt lat="48.73095" lon="7.33502">
        <ele>193.999146</ele>
        <time>2010-06-30T16:16:01Z</time>
      </trkpt>
      <trkpt lat="48.73098" lon="7.33525">
        <ele>193.628052</ele>
        <time>2010-06-30T16:16:04Z</time>
      </trkpt>
      <trkpt lat="48.73102" lon="7.33551">
        <ele>192.694458</ele>
        <time>2010-06-30T16:16:07Z</time>
      </trkpt>
      <trkpt lat="48.73109" lon="7.33579">
        <ele>190.206177</ele>
        <time>2010-06-30T16:16:10Z</time>
      </trkpt>
      <trkpt lat="48.73109" lon="7.33606">
        <ele>190.139771</ele>
        <time>2010-06-30T16:16:13Z</time>
      </trkpt>
      <trkpt lat="48.73113" lon="7.33633">
        <ele>190.245239</ele>
        <time>2010-06-30T16:16:16Z</time>
      </trkpt>
      <trkpt lat="48.73116" lon="7.33662">
        <ele>190.460083</ele>
        <time>2010-06-30T16:16:19Z</time>
      </trkpt>
      <trkpt lat="48.7312" lon="7.33691">
        <ele>190.678833</ele>
        <time>2010-06-30T16:16:22Z</time>
      </trkpt>
      <trkpt lat="48.73122" lon="7.3372">
        <ele>190.174927</ele>
        <time>2010-06-30T16:16:25Z</time>
      </trkpt>
      <trkpt lat="48.73122" lon="7.33749">
        <ele>189.190552</ele>
        <time>2010-06-30T16:16:28Z</time>
      </trkpt>
      <trkpt lat="48.73124" lon="7.33779">
        <ele>188.592896</ele>
        <time>2010-06-30T16:16:31Z</time>
      </trkpt>
      <trkpt lat="48.73127" lon="7.33809">
        <ele>188.370239</ele>
        <time>2010-06-30T16:16:34Z</time>
      </trkpt>
      <trkpt lat="48.73129" lon="7.3383">
        <ele>187.796021</ele>
        <time>2010-06-30T16:16:36Z</time>
      </trkpt>
      <trkpt lat="48.73127" lon="7.33851">
        <ele>187.561646</ele>
        <time>2010-06-30T16:16:38Z</time>
      </trkpt>
      <trkpt lat="48.73129" lon="7.33873">
        <ele>188.006958</ele>
        <time>2010-06-30T16:16:40Z</time>
      </trkpt>
      <trkpt lat="48.73133" lon="7.33893">
        <ele>188.069458</ele>
        <time>2010-06-30T16:16:42Z</time>
      </trkpt>
      <trkpt lat="48.73139" lon="7.33913">
        <ele>188.022583</ele>
        <time>2010-06-30T16:16:44Z</time>
      </trkpt>
      <trkpt lat="48.73144" lon="7.33933">
        <ele>188.569458</ele>
        <time>2010-06-30T16:16:46Z</time>
      </trkpt>
      <trkpt lat="48.73148" lon="7.33953">
        <ele>188.561646</ele>
        <time>2010-06-30T16:16:48Z</time>
      </trkpt>
      <trkpt lat="48.73154" lon="7.33973">
        <ele>188.991333</ele>
        <time>2010-06-30T16:16:50Z</time>
      </trkpt>
      <trkpt lat="48.73159" lon="7.33994">
        <ele>189.010864</ele>
        <time>2010-06-30T16:16:52Z</time>
      </trkpt>
      <trkpt lat="48.73166" lon="7.34012">
        <ele>189.096802</ele>
        <time>2010-06-30T16:16:54Z</time>
      </trkpt>
      <trkpt lat="48.73173" lon="7.3403">
        <ele>188.667114</ele>
        <time>2010-06-30T16:16:56Z</time>
      </trkpt>
      <trkpt lat="48.73181" lon="7.34047">
        <ele>188.241333</ele>
        <time>2010-06-30T16:16:58Z</time>
      </trkpt>
      <trkpt lat="48.73192" lon="7.34062">
        <ele>188.108521</ele>
        <time>2010-06-30T16:17:00Z</time>
      </trkpt>
      <trkpt lat="48.73203" lon="7.34075">
        <ele>188.092896</ele>
        <time>2010-06-30T16:17:02Z</time>
      </trkpt>
      <trkpt lat="48.73216" lon="7.34086">
        <ele>188.296021</ele>
        <time>2010-06-30T16:17:04Z</time>
      </trkpt>
      <trkpt lat="48.73228" lon="7.34096">
        <ele>188.460083</ele>
        <time>2010-06-30T16:17:06Z</time>
      </trkpt>
      <trkpt lat="48.73246" lon="7.34104">
        <ele>188.366333</ele>
        <time>2010-06-30T16:17:09Z</time>
      </trkpt>
      <trkpt lat="48.7326" lon="7.34112">
        <ele>187.944458</ele>
        <time>2010-06-30T16:17:11Z</time>
      </trkpt>
      <trkpt lat="48.73279" lon="7.34121">
        <ele>188.635864</ele>
        <time>2010-06-30T16:17:14Z</time>
      </trkpt>
      <trkpt lat="48.73296" lon="7.34133">
        <ele>187.635864</ele>
        <time>2010-06-30T16:17:17Z</time>
      </trkpt>
      <trkpt lat="48.73314" lon="7.34145">
        <ele>186.553833</ele>
        <time>2010-06-30T16:17:20Z</time>
      </trkpt>
      <trkpt lat="48.73333" lon="7.34157">
        <ele>187.206177</ele>
        <time>2010-06-30T16:17:23Z</time>
      </trkpt>
      <trkpt lat="48.73346" lon="7.34164">
        <ele>187.460083</ele>
        <time>2010-06-30T16:17:25Z</time>
      </trkpt>
      <trkpt lat="48.73359" lon="7.34173">
        <ele>187.628052</ele>
        <time>2010-06-30T16:17:27Z</time>
      </trkpt>
      <trkpt lat="48.73377" lon="7.34186">
        <ele>187.444458</ele>
        <time>2010-06-30T16:17:30Z</time>
      </trkpt>
      <trkpt lat="48.73395" lon="7.34198">
        <ele>188.440552</ele>
        <time>2010-06-30T16:17:33Z</time>
      </trkpt>
      <trkpt lat="48.7341" lon="7.34217">
        <ele>189.073364</ele>
        <time>2010-06-30T16:17:36Z</time>
      </trkpt>
      <trkpt lat="48.73423" lon="7.34232">
        <ele>187.799927</ele>
        <time>2010-06-30T16:17:39Z</time>
      </trkpt>
      <trkpt lat="48.73439" lon="7.34245">
        <ele>188.296021</ele>
        <time>2010-06-30T16:17:42Z</time>
      </trkpt>
      <trkpt lat="48.73454" lon="7.34266">
        <ele>186.483521</ele>
        <time>2010-06-30T16:17:45Z</time>
      </trkpt>
      <trkpt lat="48.73463" lon="7.34282">
        <ele>185.065552</ele>
        <time>2010-06-30T16:17:47Z</time>
      </trkpt>
      <trkpt lat="48.73478" lon="7.34303">
        <ele>183.628052</ele>
        <time>2010-06-30T16:17:50Z</time>
      </trkpt>
      <trkpt lat="48.73491" lon="7.34318">
        <ele>182.475708</ele>
        <time>2010-06-30T16:17:53Z</time>
      </trkpt>
      <trkpt lat="48.73504" lon="7.34337">
        <ele>183.303833</ele>
        <time>2010-06-30T16:17:56Z</time>
      </trkpt>
      <trkpt lat="48.73518" lon="7.34354">
        <ele>182.827271</ele>
        <time>2010-06-30T16:17:59Z</time>
      </trkpt>
      <trkpt lat="48.73527" lon="7.3437">
        <ele>183.671021</ele>
        <time>2010-06-30T16:18:01Z</time>
      </trkpt>
      <trkpt lat="48.73541" lon="7.34392">
        <ele>183.401489</ele>
        <time>2010-06-30T16:18:04Z</time>
      </trkpt>
      <trkpt lat="48.73554" lon="7.34416">
        <ele>182.335083</ele>
        <time>2010-06-30T16:18:07Z</time>
      </trkpt>
      <trkpt lat="48.73563" lon="7.34432">
        <ele>183.206177</ele>
        <time>2010-06-30T16:18:09Z</time>
      </trkpt>
      <trkpt lat="48.73574" lon="7.34453">
        <ele>184.264771</ele>
        <time>2010-06-30T16:18:12Z</time>
      </trkpt>
      <trkpt lat="48.73588" lon="7.34474">
        <ele>184.764771</ele>
        <time>2010-06-30T16:18:15Z</time>
      </trkpt>
      <trkpt lat="48.73601" lon="7.34494">
        <ele>185.663208</ele>
        <time>2010-06-30T16:18:18Z</time>
      </trkpt>
      <trkpt lat="48.73615" lon="7.34516">
        <ele>186.346802</ele>
        <time>2010-06-30T16:18:21Z</time>
      </trkpt>
      <trkpt lat="48.73629" lon="7.34536">
        <ele>187.104614</ele>
        <time>2010-06-30T16:18:24Z</time>
      </trkpt>
      <trkpt lat="48.73643" lon="7.34555">
        <ele>188.213989</ele>
        <time>2010-06-30T16:18:27Z</time>
      </trkpt>
      <trkpt lat="48.73657" lon="7.34574">
        <ele>190.354614</ele>
        <time>2010-06-30T16:18:30Z</time>
      </trkpt>
      <trkpt lat="48.73674" lon="7.34591">
        <ele>192.100708</ele>
        <time>2010-06-30T16:18:33Z</time>
      </trkpt>
      <trkpt lat="48.7369" lon="7.34607">
        <ele>194.296021</ele>
        <time>2010-06-30T16:18:36Z</time>
      </trkpt>
      <trkpt lat="48.73702" lon="7.34617">
        <ele>197.549927</ele>
        <time>2010-06-30T16:18:38Z</time>
      </trkpt>
      <trkpt lat="48.73714" lon="7.34627">
        <ele>199.987427</ele>
        <time>2010-06-30T16:18:40Z</time>
      </trkpt>
      <trkpt lat="48.73731" lon="7.34642">
        <ele>203.842896</ele>
        <time>2010-06-30T16:18:43Z</time>
      </trkpt>
      <trkpt lat="48.73747" lon="7.34659">
        <ele>205.635864</ele>
        <time>2010-06-30T16:18:46Z</time>
      </trkpt>
      <trkpt lat="48.7376" lon="7.34668">
        <ele>206.846802</ele>
        <time>2010-06-30T16:18:48Z</time>
      </trkpt>
      <trkpt lat="48.73772" lon="7.34676">
        <ele>208.971802</ele>
        <time>2010-06-30T16:18:50Z</time>
      </trkpt>
      <trkpt lat="48.73785" lon="7.34685">
        <ele>209.901489</ele>
        <time>2010-06-30T16:18:52Z</time>
      </trkpt>
      <trkpt lat="48.73803" lon="7.34699">
        <ele>208.381958</ele>
        <time>2010-06-30T16:18:55Z</time>
      </trkpt>
      <trkpt lat="48.73814" lon="7.34722">
        <ele>202.354614</ele>
        <time>2010-06-30T16:18:58Z</time>
      </trkpt>
      <trkpt lat="48.73826" lon="7.34733">
        <ele>200.991333</ele>
        <time>2010-06-30T16:19:00Z</time>
      </trkpt>
      <trkpt lat="48.73838" lon="7.34743">
        <ele>200.897583</ele>
        <time>2010-06-30T16:19:02Z</time>
      </trkpt>
      <trkpt lat="48.73855" lon="7.34757">
        <ele>201.288208</ele>
        <time>2010-06-30T16:19:05Z</time>
      </trkpt>
      <trkpt lat="48.73872" lon="7.34772">
        <ele>200.835083</ele>
        <time>2010-06-30T16:19:08Z</time>
      </trkpt>
      <trkpt lat="48.73884" lon="7.34783">
        <ele>200.549927</ele>
        <time>2010-06-30T16:19:10Z</time>
      </trkpt>
      <trkpt lat="48.739" lon="7.34798">
        <ele>200.561646</ele>
        <time>2010-06-30T16:19:13Z</time>
      </trkpt>
      <trkpt lat="48.73916" lon="7.34814">
        <ele>200.741333</ele>
        <time>2010-06-30T16:19:16Z</time>
      </trkpt>
      <trkpt lat="48.73932" lon="7.34827">
        <ele>200.897583</ele>
        <time>2010-06-30T16:19:19Z</time>
      </trkpt>
      <trkpt lat="48.73946" lon="7.34841">
        <ele>201.049927</ele>
        <time>2010-06-30T16:19:22Z</time>
      </trkpt>
      <trkpt lat="48.73962" lon="7.34857">
        <ele>201.139771</ele>
        <time>2010-06-30T16:19:25Z</time>
      </trkpt>
      <trkpt lat="48.73977" lon="7.34875">
        <ele>200.835083</ele>
        <time>2010-06-30T16:19:28Z</time>
      </trkpt>
      <trkpt lat="48.73986" lon="7.34891">
        <ele>198.151489</ele>
        <time>2010-06-30T16:19:30Z</time>
      </trkpt>
      <trkpt lat="48.74002" lon="7.34907">
        <ele>198.342896</ele>
        <time>2010-06-30T16:19:33Z</time>
      </trkpt>
      <trkpt lat="48.74017" lon="7.34925">
        <ele>198.003052</ele>
        <time>2010-06-30T16:19:36Z</time>
      </trkpt>
      <trkpt lat="48.74032" lon="7.34944">
        <ele>197.409302</ele>
        <time>2010-06-30T16:19:39Z</time>
      </trkpt>
      <trkpt lat="48.74044" lon="7.34968">
        <ele>196.022583</ele>
        <time>2010-06-30T16:19:42Z</time>
      </trkpt>
      <trkpt lat="48.74049" lon="7.34997">
        <ele>188.335083</ele>
        <time>2010-06-30T16:19:44Z</time>
      </trkpt>
      <trkpt lat="48.74059" lon="7.35021">
        <ele>189.018677</ele>
        <time>2010-06-30T16:19:47Z</time>
      </trkpt>
      <trkpt lat="48.74067" lon="7.35047">
        <ele>188.870239</ele>
        <time>2010-06-30T16:19:50Z</time>
      </trkpt>
      <trkpt lat="48.74076" lon="7.35073">
        <ele>189.350708</ele>
        <time>2010-06-30T16:19:53Z</time>
      </trkpt>
      <trkpt lat="48.74083" lon="7.351">
        <ele>189.788208</ele>
        <time>2010-06-30T16:19:56Z</time>
      </trkpt>
      <trkpt lat="48.74088" lon="7.35129">
        <ele>189.362427</ele>
        <time>2010-06-30T16:19:59Z</time>
      </trkpt>
      <trkpt lat="48.74091" lon="7.35158">
        <ele>189.022583</ele>
        <time>2010-06-30T16:20:02Z</time>
      </trkpt>
      <trkpt lat="48.74094" lon="7.35188">
        <ele>189.253052</ele>
        <time>2010-06-30T16:20:05Z</time>
      </trkpt>
      <trkpt lat="48.74096" lon="7.35208">
        <ele>189.694458</ele>
        <time>2010-06-30T16:20:07Z</time>
      </trkpt>
      <trkpt lat="48.74096" lon="7.35229">
        <ele>190.311646</ele>
        <time>2010-06-30T16:20:09Z</time>
      </trkpt>
      <trkpt lat="48.74097" lon="7.35251">
        <ele>191.799927</ele>
        <time>2010-06-30T16:20:11Z</time>
      </trkpt>
      <trkpt lat="48.74097" lon="7.35273">
        <ele>192.421021</ele>
        <time>2010-06-30T16:20:13Z</time>
      </trkpt>
      <trkpt lat="48.74096" lon="7.35294">
        <ele>192.733521</ele>
        <time>2010-06-30T16:20:15Z</time>
      </trkpt>
      <trkpt lat="48.74096" lon="7.35315">
        <ele>193.635864</ele>
        <time>2010-06-30T16:20:17Z</time>
      </trkpt>
      <trkpt lat="48.74096" lon="7.35337">
        <ele>195.721802</ele>
        <time>2010-06-30T16:20:19Z</time>
      </trkpt>
      <trkpt lat="48.74096" lon="7.35358">
        <ele>196.495239</ele>
        <time>2010-06-30T16:20:21Z</time>
      </trkpt>
      <trkpt lat="48.74096" lon="7.35379">
        <ele>196.499146</ele>
        <time>2010-06-30T16:20:23Z</time>
      </trkpt>
      <trkpt lat="48.74094" lon="7.354">
        <ele>196.897583</ele>
        <time>2010-06-30T16:20:25Z</time>
      </trkpt>
      <trkpt lat="48.74093" lon="7.35421">
        <ele>197.327271</ele>
        <time>2010-06-30T16:20:27Z</time>
      </trkpt>
      <trkpt lat="48.74093" lon="7.35443">
        <ele>196.995239</ele>
        <time>2010-06-30T16:20:29Z</time>
      </trkpt>
      <trkpt lat="48.74091" lon="7.35464">
        <ele>196.292114</ele>
        <time>2010-06-30T16:20:31Z</time>
      </trkpt>
      <trkpt lat="48.74091" lon="7.35487">
        <ele>196.913208</ele>
        <time>2010-06-30T16:20:33Z</time>
      </trkpt>
      <trkpt lat="48.74091" lon="7.35508">
        <ele>196.815552</ele>
        <time>2010-06-30T16:20:35Z</time>
      </trkpt>
      <trkpt lat="48.7409" lon="7.35529">
        <ele>196.995239</ele>
        <time>2010-06-30T16:20:37Z</time>
      </trkpt>
      <trkpt lat="48.74089" lon="7.3555">
        <ele>196.905396</ele>
        <time>2010-06-30T16:20:39Z</time>
      </trkpt>
      <trkpt lat="48.74088" lon="7.35571">
        <ele>197.628052</ele>
        <time>2010-06-30T16:20:41Z</time>
      </trkpt>
      <trkpt lat="48.74088" lon="7.35591">
        <ele>197.917114</ele>
        <time>2010-06-30T16:20:43Z</time>
      </trkpt>
      <trkpt lat="48.74088" lon="7.35612">
        <ele>198.319458</ele>
        <time>2010-06-30T16:20:45Z</time>
      </trkpt>
      <trkpt lat="48.74088" lon="7.35633">
        <ele>198.112427</ele>
        <time>2010-06-30T16:20:47Z</time>
      </trkpt>
      <trkpt lat="48.74091" lon="7.35661">
        <ele>198.124146</ele>
        <time>2010-06-30T16:20:50Z</time>
      </trkpt>
      <trkpt lat="48.74089" lon="7.3569">
        <ele>198.092896</ele>
        <time>2010-06-30T16:20:53Z</time>
      </trkpt>
      <trkpt lat="48.74089" lon="7.35711">
        <ele>198.413208</ele>
        <time>2010-06-30T16:20:55Z</time>
      </trkpt>
      <trkpt lat="48.74089" lon="7.35741">
        <ele>198.428833</ele>
        <time>2010-06-30T16:20:58Z</time>
      </trkpt>
      <trkpt lat="48.74089" lon="7.35771">
        <ele>198.042114</ele>
        <time>2010-06-30T16:21:01Z</time>
      </trkpt>
      <trkpt lat="48.74089" lon="7.35791">
        <ele>197.811646</ele>
        <time>2010-06-30T16:21:03Z</time>
      </trkpt>
      <trkpt lat="48.74089" lon="7.35812">
        <ele>197.831177</ele>
        <time>2010-06-30T16:21:05Z</time>
      </trkpt>
      <trkpt lat="48.74088" lon="7.35841">
        <ele>198.131958</ele>
        <time>2010-06-30T16:21:08Z</time>
      </trkpt>
      <trkpt lat="48.74086" lon="7.35868">
        <ele>197.667114</ele>
        <time>2010-06-30T16:21:11Z</time>
      </trkpt>
      <trkpt lat="48.74084" lon="7.35893">
        <ele>197.253052</ele>
        <time>2010-06-30T16:21:14Z</time>
      </trkpt>
      <trkpt lat="48.74084" lon="7.35914">
        <ele>196.565552</ele>
        <time>2010-06-30T16:21:20Z</time>
      </trkpt>
      <trkpt lat="48.7408" lon="7.35894">
        <ele>196.862427</ele>
        <time>2010-06-30T16:21:30Z</time>
      </trkpt>
      <trkpt lat="48.7408" lon="7.35869">
        <ele>195.694458</ele>
        <time>2010-06-30T16:21:35Z</time>
      </trkpt>
      <trkpt lat="48.74078" lon="7.35848">
        <ele>196.100708</ele>
        <time>2010-06-30T16:21:39Z</time>
      </trkpt>
      <trkpt lat="48.7408" lon="7.35825">
        <ele>196.948364</ele>
        <time>2010-06-30T16:21:44Z</time>
      </trkpt>
      <trkpt lat="48.7408" lon="7.35804">
        <ele>199.405396</ele>
        <time>2010-06-30T16:21:52Z</time>
      </trkpt>
      <trkpt lat="48.74074" lon="7.35821">
        <ele>205.639771</ele>
        <time>2010-06-30T16:22:44Z</time>
      </trkpt>
      <trkpt lat="48.7407" lon="7.35844">
        <ele>206.256958</ele>
        <time>2010-06-30T16:22:51Z</time>
      </trkpt>
      <trkpt lat="48.74057" lon="7.35851">
        <ele>207.483521</ele>
        <time>2010-06-30T16:22:57Z</time>
      </trkpt>
      <trkpt lat="48.74044" lon="7.35861">
        <ele>207.514771</ele>
        <time>2010-06-30T16:23:03Z</time>
      </trkpt>
      <trkpt lat="48.74032" lon="7.35874">
        <ele>206.753052</ele>
        <time>2010-06-30T16:23:11Z</time>
      </trkpt>
      <trkpt lat="48.74022" lon="7.35889">
        <ele>206.460083</ele>
        <time>2010-06-30T16:23:18Z</time>
      </trkpt>
      <trkpt lat="48.74009" lon="7.35898">
        <ele>207.940552</ele>
        <time>2010-06-30T16:23:27Z</time>
      </trkpt>
      <trkpt lat="48.73994" lon="7.35891">
        <ele>209.409302</ele>
        <time>2010-06-30T16:23:32Z</time>
      </trkpt>
      <trkpt lat="48.73979" lon="7.35888">
        <ele>211.096802</ele>
        <time>2010-06-30T16:23:38Z</time>
      </trkpt>
      <trkpt lat="48.73964" lon="7.35885">
        <ele>215.741333</ele>
        <time>2010-06-30T16:23:44Z</time>
      </trkpt>
      <trkpt lat="48.73951" lon="7.3589">
        <ele>215.901489</ele>
        <time>2010-06-30T16:23:50Z</time>
      </trkpt>
      <trkpt lat="48.73936" lon="7.35895">
        <ele>215.288208</ele>
        <time>2010-06-30T16:23:56Z</time>
      </trkpt>
      <trkpt lat="48.73923" lon="7.35896">
        <ele>216.522583</ele>
        <time>2010-06-30T16:24:01Z</time>
      </trkpt>
      <trkpt lat="48.73908" lon="7.35895">
        <ele>216.760864</ele>
        <time>2010-06-30T16:24:06Z</time>
      </trkpt>
      <trkpt lat="48.73893" lon="7.35892">
        <ele>217.549927</ele>
        <time>2010-06-30T16:24:11Z</time>
      </trkpt>
      <trkpt lat="48.73877" lon="7.35888">
        <ele>219.171021</ele>
        <time>2010-06-30T16:24:17Z</time>
      </trkpt>
      <trkpt lat="48.73862" lon="7.35886">
        <ele>222.397583</ele>
        <time>2010-06-30T16:24:22Z</time>
      </trkpt>
      <trkpt lat="48.73846" lon="7.35886">
        <ele>222.780396</ele>
        <time>2010-06-30T16:24:28Z</time>
      </trkpt>
      <trkpt lat="48.73832" lon="7.35881">
        <ele>223.819458</ele>
        <time>2010-06-30T16:24:33Z</time>
      </trkpt>
      <trkpt lat="48.73822" lon="7.35898">
        <ele>223.995239</ele>
        <time>2010-06-30T16:24:39Z</time>
      </trkpt>
      <trkpt lat="48.73821" lon="7.35918">
        <ele>226.288208</ele>
        <time>2010-06-30T16:24:44Z</time>
      </trkpt>
      <trkpt lat="48.73812" lon="7.35936">
        <ele>227.553833</ele>
        <time>2010-06-30T16:24:51Z</time>
      </trkpt>
      <trkpt lat="48.73805" lon="7.35958">
        <ele>229.835083</ele>
        <time>2010-06-30T16:24:58Z</time>
      </trkpt>
      <trkpt lat="48.73797" lon="7.35976">
        <ele>229.452271</ele>
        <time>2010-06-30T16:25:02Z</time>
      </trkpt>
      <trkpt lat="48.7379" lon="7.35994">
        <ele>228.878052</ele>
        <time>2010-06-30T16:25:06Z</time>
      </trkpt>
      <trkpt lat="48.73784" lon="7.36016">
        <ele>228.280396</ele>
        <time>2010-06-30T16:25:10Z</time>
      </trkpt>
      <trkpt lat="48.73778" lon="7.36036">
        <ele>227.393677</ele>
        <time>2010-06-30T16:25:14Z</time>
      </trkpt>
      <trkpt lat="48.73771" lon="7.3606">
        <ele>225.788208</ele>
        <time>2010-06-30T16:25:18Z</time>
      </trkpt>
      <trkpt lat="48.73765" lon="7.36078">
        <ele>224.010864</ele>
        <time>2010-06-30T16:25:21Z</time>
      </trkpt>
      <trkpt lat="48.7376" lon="7.36103">
        <ele>220.913208</ele>
        <time>2010-06-30T16:25:24Z</time>
      </trkpt>
      <trkpt lat="48.73751" lon="7.36126">
        <ele>218.229614</ele>
        <time>2010-06-30T16:25:27Z</time>
      </trkpt>
      <trkpt lat="48.73737" lon="7.36129">
        <ele>218.081177</ele>
        <time>2010-06-30T16:25:32Z</time>
      </trkpt>
      <trkpt lat="48.73726" lon="7.36118">
        <ele>220.237427</ele>
        <time>2010-06-30T16:25:37Z</time>
      </trkpt>
      <trkpt lat="48.73712" lon="7.36108">
        <ele>222.346802</ele>
        <time>2010-06-30T16:25:43Z</time>
      </trkpt>
      <trkpt lat="48.73698" lon="7.36099">
        <ele>224.702271</ele>
        <time>2010-06-30T16:25:50Z</time>
      </trkpt>
      <trkpt lat="48.73686" lon="7.36089">
        <ele>227.315552</ele>
        <time>2010-06-30T16:25:57Z</time>
      </trkpt>
      <trkpt lat="48.73672" lon="7.36079">
        <ele>229.671021</ele>
        <time>2010-06-30T16:26:05Z</time>
      </trkpt>
      <trkpt lat="48.73659" lon="7.36069">
        <ele>231.432739</ele>
        <time>2010-06-30T16:26:11Z</time>
      </trkpt>
      <trkpt lat="48.73645" lon="7.3606">
        <ele>232.604614</ele>
        <time>2010-06-30T16:26:17Z</time>
      </trkpt>
      <trkpt lat="48.73631" lon="7.36058">
        <ele>234.213989</ele>
        <time>2010-06-30T16:26:23Z</time>
      </trkpt>
      <trkpt lat="48.73616" lon="7.36064">
        <ele>234.776489</ele>
        <time>2010-06-30T16:26:30Z</time>
      </trkpt>
      <trkpt lat="48.73603" lon="7.36068">
        <ele>233.635864</ele>
        <time>2010-06-30T16:26:36Z</time>
      </trkpt>
      <trkpt lat="48.73589" lon="7.36074">
        <ele>232.963989</ele>
        <time>2010-06-30T16:26:40Z</time>
      </trkpt>
      <trkpt lat="48.73572" lon="7.3608">
        <ele>231.253052</ele>
        <time>2010-06-30T16:26:44Z</time>
      </trkpt>
      <trkpt lat="48.73556" lon="7.36085">
        <ele>230.526489</ele>
        <time>2010-06-30T16:26:47Z</time>
      </trkpt>
      <trkpt lat="48.73539" lon="7.36089">
        <ele>230.147583</ele>
        <time>2010-06-30T16:26:50Z</time>
      </trkpt>
      <trkpt lat="48.73522" lon="7.36096">
        <ele>229.174927</ele>
        <time>2010-06-30T16:26:53Z</time>
      </trkpt>
      <trkpt lat="48.73502" lon="7.36101">
        <ele>227.725708</ele>
        <time>2010-06-30T16:26:56Z</time>
      </trkpt>
      <trkpt lat="48.73488" lon="7.36105">
        <ele>227.065552</ele>
        <time>2010-06-30T16:26:58Z</time>
      </trkpt>
      <trkpt lat="48.73473" lon="7.36108">
        <ele>226.413208</ele>
        <time>2010-06-30T16:27:00Z</time>
      </trkpt>
      <trkpt lat="48.73459" lon="7.36112">
        <ele>225.401489</ele>
        <time>2010-06-30T16:27:02Z</time>
      </trkpt>
      <trkpt lat="48.73351" lon="7.36154">
        <ele>225.663208</ele>
        <time>2010-06-30T16:27:28Z</time>
      </trkpt>
    </trkseg>
  </trk>
</gpx>